<?xml version="1.0" encoding="UTF-8" standalone="no" ?><gpx xmlns="http://www.topografix.com/GPX/1/1" xmlns:gpxx="http://www.garmin.com/xmlschemas/GpxExtensions/v3" xmlns:wptx1="http://www.garmin.com/xmlschemas/WaypointExtension/v1" xmlns:gpxtpx="http://www.garmin.com/xmlschemas/TrackPointExtension/v1" creator="GuideVTT.com" version="1.1" xmlns:xsi="http://www.w3.org/2001/XMLSchema-instance" xsi:schemaLocation="http://www.topografix.com/GPX/1/1 http://www.topografix.com/GPX/1/1/gpx.xsd http://www.garmin.com/xmlschemas/GpxExtensions/v3 http://www8.garmin.com/xmlschemas/GpxExtensionsv3.xsd http://www.garmin.com/xmlschemas/WaypointExtension/v1 http://www8.garmin.com/xmlschemas/WaypointExtensionv1.xsd http://www.garmin.com/xmlschemas/TrackPointExtension/v1 http://www.garmin.com/xmlschemas/TrackPointExtensionv1.xsd">
<metadata><link href="http://www.garmin.com"><text>Garmin International</text></link><time>2013-06-22T15:13:50Z</time></metadata>
<trk><name>etape3lasage.gpx</name><extensions><gpxx:TrackExtension><gpxx:DisplayColor>Cyan</gpxx:DisplayColor></gpxx:TrackExtension></extensions><trkseg>
<trkpt lat="46.11239254" lon="7.49676204"><ele>1389.242432</ele><time>2009-06-09T13:44:38Z</time></trkpt>
<trkpt lat="46.11212952" lon="7.49729589"><ele>1384.435791</ele><time>2009-06-09T13:44:54Z</time></trkpt>
<trkpt lat="46.11172820" lon="7.49766528"><ele>1382.993652</ele><time>2009-06-09T13:45:03Z</time></trkpt>
<trkpt lat="46.11134464" lon="7.49802880"><ele>1381.551758</ele><time>2009-06-09T13:45:12Z</time></trkpt>
<trkpt lat="46.11088783" lon="7.49851570"><ele>1380.590576</ele><time>2009-06-09T13:45:23Z</time></trkpt>
<trkpt lat="46.11034594" lon="7.49906514"><ele>1382.513184</ele><time>2009-06-09T13:45:35Z</time></trkpt>
<trkpt lat="46.10994394" lon="7.49937384"><ele>1382.513184</ele><time>2009-06-09T13:45:44Z</time></trkpt>
<trkpt lat="46.10962886" lon="7.49955456"><ele>1382.032471</ele><time>2009-06-09T13:45:52Z</time></trkpt>
<trkpt lat="46.10952912" lon="7.49961181"><ele>1381.071289</ele><time>2009-06-09T13:45:56Z</time></trkpt>
<trkpt lat="46.10946978" lon="7.49958565"><ele>1382.032471</ele><time>2009-06-09T13:45:59Z</time></trkpt>
<trkpt lat="46.10965116" lon="7.49943897"><ele>1381.071289</ele><time>2009-06-09T13:46:04Z</time></trkpt>
<trkpt lat="46.10988778" lon="7.49932841"><ele>1378.667969</ele><time>2009-06-09T13:46:08Z</time></trkpt>
<trkpt lat="46.11007864" lon="7.49914577"><ele>1376.264648</ele><time>2009-06-09T13:46:11Z</time></trkpt>
<trkpt lat="46.11040503" lon="7.49872240"><ele>1372.419434</ele><time>2009-06-09T13:46:16Z</time></trkpt>
<trkpt lat="46.11036052" lon="7.49768975"><ele>1368.093262</ele><time>2009-06-09T13:46:24Z</time></trkpt>
<trkpt lat="46.11042531" lon="7.49723537"><ele>1368.093262</ele><time>2009-06-09T13:46:28Z</time></trkpt>
<trkpt lat="46.11045926" lon="7.49713931"><ele>1368.093262</ele><time>2009-06-09T13:46:29Z</time></trkpt>
<trkpt lat="46.11078557" lon="7.49652006"><ele>1365.690186</ele><time>2009-06-09T13:46:37Z</time></trkpt>
<trkpt lat="46.11117281" lon="7.49585822"><ele>1363.767334</ele><time>2009-06-09T13:46:47Z</time></trkpt>
<trkpt lat="46.11151001" lon="7.49554759"><ele>1363.286865</ele><time>2009-06-09T13:46:54Z</time></trkpt>
<trkpt lat="46.11178469" lon="7.49513805"><ele>1362.325439</ele><time>2009-06-09T13:47:01Z</time></trkpt>
<trkpt lat="46.11217570" lon="7.49448979"><ele>1360.402832</ele><time>2009-06-09T13:47:11Z</time></trkpt>
<trkpt lat="46.11234318" lon="7.49422970"><ele>1358.960938</ele><time>2009-06-09T13:47:15Z</time></trkpt>
<trkpt lat="46.11243898" lon="7.49393072"><ele>1358.480225</ele><time>2009-06-09T13:47:21Z</time></trkpt>
<trkpt lat="46.11244258" lon="7.49387397"><ele>1357.999756</ele><time>2009-06-09T13:47:23Z</time></trkpt>
<trkpt lat="46.11231971" lon="7.49382444"><ele>1356.076904</ele><time>2009-06-09T13:47:28Z</time></trkpt>
<trkpt lat="46.11227461" lon="7.49381664"><ele>1355.596191</ele><time>2009-06-09T13:47:29Z</time></trkpt>
<trkpt lat="46.11209675" lon="7.49382586"><ele>1353.192871</ele><time>2009-06-09T13:47:32Z</time></trkpt>
<trkpt lat="46.11177497" lon="7.49372008"><ele>1350.309082</ele><time>2009-06-09T13:47:36Z</time></trkpt>
<trkpt lat="46.11154874" lon="7.49359117"><ele>1349.828369</ele><time>2009-06-09T13:47:39Z</time></trkpt>
<trkpt lat="46.11125118" lon="7.49354448"><ele>1349.828369</ele><time>2009-06-09T13:47:44Z</time></trkpt>
<trkpt lat="46.11107742" lon="7.49357466"><ele>1348.866943</ele><time>2009-06-09T13:47:47Z</time></trkpt>
<trkpt lat="46.11085715" lon="7.49378420"><ele>1345.983154</ele><time>2009-06-09T13:47:52Z</time></trkpt>
<trkpt lat="46.11063830" lon="7.49391924"><ele>1345.021729</ele><time>2009-06-09T13:47:56Z</time></trkpt>
<trkpt lat="46.11058080" lon="7.49394455"><ele>1345.021729</ele><time>2009-06-09T13:47:57Z</time></trkpt>
<trkpt lat="46.11015919" lon="7.49421696"><ele>1346.944336</ele><time>2009-06-09T13:48:06Z</time></trkpt>
<trkpt lat="46.10986909" lon="7.49442098"><ele>1344.541016</ele><time>2009-06-09T13:48:13Z</time></trkpt>
<trkpt lat="46.10971444" lon="7.49423096"><ele>1345.983154</ele><time>2009-06-09T13:48:18Z</time></trkpt>
<trkpt lat="46.10958897" lon="7.49413356"><ele>1346.944336</ele><time>2009-06-09T13:48:21Z</time></trkpt>
<trkpt lat="46.10950565" lon="7.49409366"><ele>1346.944336</ele><time>2009-06-09T13:48:23Z</time></trkpt>
<trkpt lat="46.10932644" lon="7.49408662"><ele>1348.38623</ele><time>2009-06-09T13:48:27Z</time></trkpt>
<trkpt lat="46.10914045" lon="7.49411529"><ele>1351.270264</ele><time>2009-06-09T13:48:31Z</time></trkpt>
<trkpt lat="46.10871708" lon="7.49425133"><ele>1355.115479</ele><time>2009-06-09T13:48:40Z</time></trkpt>
<trkpt lat="46.10838315" lon="7.49444805"><ele>1357.519043</ele><time>2009-06-09T13:48:48Z</time></trkpt>
<trkpt lat="46.10834249" lon="7.49446465"><ele>1357.519043</ele><time>2009-06-09T13:48:49Z</time></trkpt>
<trkpt lat="46.10787361" lon="7.49475441"><ele>1359.44165</ele><time>2009-06-09T13:49:00Z</time></trkpt>
<trkpt lat="46.10756641" lon="7.49501768"><ele>1359.922119</ele><time>2009-06-09T13:49:07Z</time></trkpt>
<trkpt lat="46.10718453" lon="7.49524073"><ele>1360.402832</ele><time>2009-06-09T13:49:15Z</time></trkpt>
<trkpt lat="46.10666075" lon="7.49565781"><ele>1361.364258</ele><time>2009-06-09T13:49:26Z</time></trkpt>
<trkpt lat="46.10638549" lon="7.49590063"><ele>1363.286865</ele><time>2009-06-09T13:49:32Z</time></trkpt>
<trkpt lat="46.10623478" lon="7.49609333"><ele>1364.72876</ele><time>2009-06-09T13:49:36Z</time></trkpt>
<trkpt lat="46.10581107" lon="7.49652123"><ele>1365.209473</ele><time>2009-06-09T13:49:46Z</time></trkpt>
<trkpt lat="46.10550941" lon="7.49693546"><ele>1365.690186</ele><time>2009-06-09T13:49:54Z</time></trkpt>
<trkpt lat="46.10509023" lon="7.49721726"><ele>1366.170654</ele><time>2009-06-09T13:50:03Z</time></trkpt>
<trkpt lat="46.10468815" lon="7.49750007"><ele>1366.651367</ele><time>2009-06-09T13:50:11Z</time></trkpt>
<trkpt lat="46.10431398" lon="7.49796501"><ele>1367.612549</ele><time>2009-06-09T13:50:20Z</time></trkpt>
<trkpt lat="46.10404207" lon="7.49822326"><ele>1369.054688</ele><time>2009-06-09T13:50:27Z</time></trkpt>
<trkpt lat="46.10368073" lon="7.49844404"><ele>1370.977295</ele><time>2009-06-09T13:50:36Z</time></trkpt>
<trkpt lat="46.10309752" lon="7.49877169"><ele>1372.419434</ele><time>2009-06-09T13:50:50Z</time></trkpt>
<trkpt lat="46.10245362" lon="7.49933881"><ele>1374.342041</ele><time>2009-06-09T13:51:03Z</time></trkpt>
<trkpt lat="46.10210099" lon="7.49957694"><ele>1374.822754</ele><time>2009-06-09T13:51:09Z</time></trkpt>
<trkpt lat="46.10192237" lon="7.49983259"><ele>1375.783936</ele><time>2009-06-09T13:51:13Z</time></trkpt>
<trkpt lat="46.10059678" lon="7.50119758"><ele>1377.226074</ele><time>2009-06-09T13:51:44Z</time></trkpt>
<trkpt lat="46.09988490" lon="7.50172933"><ele>1377.226074</ele><time>2009-06-09T13:51:58Z</time></trkpt>
<trkpt lat="46.09971827" lon="7.50193845"><ele>1376.745361</ele><time>2009-06-09T13:52:01Z</time></trkpt>
<trkpt lat="46.09953630" lon="7.50221900"><ele>1377.226074</ele><time>2009-06-09T13:52:05Z</time></trkpt>
<trkpt lat="46.09848387" lon="7.50293481"><ele>1379.148438</ele><time>2009-06-09T13:52:23Z</time></trkpt>
<trkpt lat="46.09828597" lon="7.50311024"><ele>1378.187256</ele><time>2009-06-09T13:52:27Z</time></trkpt>
<trkpt lat="46.09815060" lon="7.50333572"><ele>1377.706543</ele><time>2009-06-09T13:52:31Z</time></trkpt>
<trkpt lat="46.09785799" lon="7.50378172"><ele>1379.148438</ele><time>2009-06-09T13:52:39Z</time></trkpt>
<trkpt lat="46.09750059" lon="7.50415321"><ele>1382.032471</ele><time>2009-06-09T13:52:47Z</time></trkpt>
<trkpt lat="46.09700974" lon="7.50422420"><ele>1383.474365</ele><time>2009-06-09T13:52:56Z</time></trkpt>
<trkpt lat="46.09665661" lon="7.50433258"><ele>1384.916504</ele><time>2009-06-09T13:53:03Z</time></trkpt>
<trkpt lat="46.09660875" lon="7.50436082"><ele>1384.916504</ele><time>2009-06-09T13:53:04Z</time></trkpt>
<trkpt lat="46.09651479" lon="7.50443559"><ele>1385.396973</ele><time>2009-06-09T13:53:06Z</time></trkpt>
<trkpt lat="46.09586628" lon="7.50513154"><ele>1387.800293</ele><time>2009-06-09T13:53:21Z</time></trkpt>
<trkpt lat="46.09547879" lon="7.50525509"><ele>1388.761963</ele><time>2009-06-09T13:53:29Z</time></trkpt>
<trkpt lat="46.09480932" lon="7.50549096"><ele>1389.723145</ele><time>2009-06-09T13:53:42Z</time></trkpt>
<trkpt lat="46.09471201" lon="7.50552515"><ele>1387.800293</ele><time>2009-06-09T13:53:44Z</time></trkpt>
<trkpt lat="46.09402997" lon="7.50553815"><ele>1391.165039</ele><time>2009-06-09T13:53:57Z</time></trkpt>
<trkpt lat="46.09340502" lon="7.50531360"><ele>1392.126465</ele><time>2009-06-09T13:54:15Z</time></trkpt>
<trkpt lat="46.09291635" lon="7.50535173"><ele>1394.529541</ele><time>2009-06-09T13:54:24Z</time></trkpt>
<trkpt lat="46.09259281" lon="7.50544444"><ele>1396.452393</ele><time>2009-06-09T13:54:30Z</time></trkpt>
<trkpt lat="46.09232610" lon="7.50541946"><ele>1398.374756</ele><time>2009-06-09T13:54:35Z</time></trkpt>
<trkpt lat="46.09185244" lon="7.50532726"><ele>1399.816895</ele><time>2009-06-09T13:54:45Z</time></trkpt>
<trkpt lat="46.09137031" lon="7.50527387"><ele>1401.258789</ele><time>2009-06-09T13:54:57Z</time></trkpt>
<trkpt lat="46.09138205" lon="7.50547352"><ele>1400.778076</ele><time>2009-06-09T13:55:02Z</time></trkpt>
<trkpt lat="46.09095273" lon="7.50574837"><ele>1401.739502</ele><time>2009-06-09T13:55:15Z</time></trkpt>
<trkpt lat="46.09049583" lon="7.50594450"><ele>1401.739502</ele><time>2009-06-09T13:55:26Z</time></trkpt>
<trkpt lat="46.09030640" lon="7.50604760"><ele>1401.258789</ele><time>2009-06-09T13:55:31Z</time></trkpt>
<trkpt lat="46.09040857" lon="7.50679996"><ele>1404.623535</ele><time>2009-06-09T13:55:44Z</time></trkpt>
<trkpt lat="46.09042106" lon="7.50706516"><ele>1405.584961</ele><time>2009-06-09T13:55:49Z</time></trkpt>
<trkpt lat="46.09025259" lon="7.50723523"><ele>1407.988281</ele><time>2009-06-09T13:55:55Z</time></trkpt>
<trkpt lat="46.09038770" lon="7.50752047"><ele>1409.910645</ele><time>2009-06-09T13:56:04Z</time></trkpt>
<trkpt lat="46.09047068" lon="7.50783714"><ele>1410.391357</ele><time>2009-06-09T13:56:10Z</time></trkpt>
<trkpt lat="46.09054361" lon="7.50830828"><ele>1411.352783</ele><time>2009-06-09T13:56:19Z</time></trkpt>
<trkpt lat="46.08978395" lon="7.50879016"><ele>1415.197998</ele><time>2009-06-09T13:56:43Z</time></trkpt>
<trkpt lat="46.08951582" lon="7.50889175"><ele>1415.197998</ele><time>2009-06-09T13:56:50Z</time></trkpt>
<trkpt lat="46.08993860" lon="7.50932467"><ele>1412.794678</ele><time>2009-06-09T13:57:03Z</time></trkpt>
<trkpt lat="46.09033808" lon="7.50958007"><ele>1413.755859</ele><time>2009-06-09T13:57:11Z</time></trkpt>
<trkpt lat="46.09069146" lon="7.50980143"><ele>1418.081787</ele><time>2009-06-09T13:57:20Z</time></trkpt>
<trkpt lat="46.09083203" lon="7.50988408"><ele>1420.004639</ele><time>2009-06-09T13:57:26Z</time></trkpt>
<trkpt lat="46.09099665" lon="7.51009623"><ele>1422.888672</ele><time>2009-06-09T13:57:35Z</time></trkpt>
<trkpt lat="46.09118784" lon="7.51029144"><ele>1424.811279</ele><time>2009-06-09T13:57:45Z</time></trkpt>
<trkpt lat="46.09136679" lon="7.51021064"><ele>1426.253174</ele><time>2009-06-09T13:57:54Z</time></trkpt>
<trkpt lat="46.09154767" lon="7.51018876"><ele>1428.656494</ele><time>2009-06-09T13:58:03Z</time></trkpt>
<trkpt lat="46.09158539" lon="7.51018859"><ele>1429.617676</ele><time>2009-06-09T13:58:05Z</time></trkpt>
<trkpt lat="46.09164566" lon="7.51000956"><ele>1432.020996</ele><time>2009-06-09T13:58:12Z</time></trkpt>
<trkpt lat="46.09175295" lon="7.51001551"><ele>1431.540283</ele><time>2009-06-09T13:58:18Z</time></trkpt>
<trkpt lat="46.09199317" lon="7.51006848"><ele>1437.30835</ele><time>2009-06-09T13:58:29Z</time></trkpt>
<trkpt lat="46.09226542" lon="7.51005884"><ele>1441.153564</ele><time>2009-06-09T13:58:42Z</time></trkpt>
<trkpt lat="46.09244848" lon="7.51011852"><ele>1444.037598</ele><time>2009-06-09T13:58:52Z</time></trkpt>
<trkpt lat="46.09261620" lon="7.51014048"><ele>1446.921387</ele><time>2009-06-09T13:59:00Z</time></trkpt>
<trkpt lat="46.09283371" lon="7.51023025"><ele>1445.479492</ele><time>2009-06-09T13:59:12Z</time></trkpt>
<trkpt lat="46.09308500" lon="7.51012573"><ele>1449.324707</ele><time>2009-06-09T13:59:24Z</time></trkpt>
<trkpt lat="46.09337979" lon="7.50992415"><ele>1452.689453</ele><time>2009-06-09T13:59:38Z</time></trkpt>
<trkpt lat="46.09359001" lon="7.50965115"><ele>1455.573486</ele><time>2009-06-09T13:59:50Z</time></trkpt>
<trkpt lat="46.09376972" lon="7.50944378"><ele>1457.496094</ele><time>2009-06-09T14:00:00Z</time></trkpt>
<trkpt lat="46.09399511" lon="7.50915301"><ele>1460.860596</ele><time>2009-06-09T14:00:13Z</time></trkpt>
<trkpt lat="46.09411254" lon="7.50908185"><ele>1462.30249</ele><time>2009-06-09T14:00:19Z</time></trkpt>
<trkpt lat="46.09428629" lon="7.50917723"><ele>1464.225098</ele><time>2009-06-09T14:00:28Z</time></trkpt>
<trkpt lat="46.09438654" lon="7.50911127"><ele>1467.109131</ele><time>2009-06-09T14:00:34Z</time></trkpt>
<trkpt lat="46.09447556" lon="7.50881673"><ele>1468.55127</ele><time>2009-06-09T14:00:46Z</time></trkpt>
<trkpt lat="46.09461277" lon="7.50858170"><ele>1471.915771</ele><time>2009-06-09T14:00:56Z</time></trkpt>
<trkpt lat="46.09482106" lon="7.50852990"><ele>1473.35791</ele><time>2009-06-09T14:01:05Z</time></trkpt>
<trkpt lat="46.09503270" lon="7.50848816"><ele>1475.760986</ele><time>2009-06-09T14:01:14Z</time></trkpt>
<trkpt lat="46.09525105" lon="7.50830107"><ele>1479.606201</ele><time>2009-06-09T14:01:24Z</time></trkpt>
<trkpt lat="46.09540226" lon="7.50806152"><ele>1482.009521</ele><time>2009-06-09T14:01:34Z</time></trkpt>
<trkpt lat="46.09549974" lon="7.50804048"><ele>1483.932129</ele><time>2009-06-09T14:01:41Z</time></trkpt>
<trkpt lat="46.09552053" lon="7.50810075"><ele>1484.893799</ele><time>2009-06-09T14:01:44Z</time></trkpt>
<trkpt lat="46.09544836" lon="7.50831524"><ele>1485.85498</ele><time>2009-06-09T14:01:53Z</time></trkpt>
<trkpt lat="46.09529547" lon="7.50858463"><ele>1489.219482</ele><time>2009-06-09T14:02:05Z</time></trkpt>
<trkpt lat="46.09515315" lon="7.50881614"><ele>1491.622803</ele><time>2009-06-09T14:02:16Z</time></trkpt>
<trkpt lat="46.09500512" lon="7.50899577"><ele>1494.506592</ele><time>2009-06-09T14:02:27Z</time></trkpt>
<trkpt lat="46.09487202" lon="7.50922065"><ele>1497.390625</ele><time>2009-06-09T14:02:38Z</time></trkpt>
<trkpt lat="46.09484025" lon="7.50941176"><ele>1499.313232</ele><time>2009-06-09T14:02:46Z</time></trkpt>
<trkpt lat="46.09491955" lon="7.50961561"><ele>1501.236084</ele><time>2009-06-09T14:02:55Z</time></trkpt>
<trkpt lat="46.09495676" lon="7.50990344"><ele>1503.158691</ele><time>2009-06-09T14:03:06Z</time></trkpt>
<trkpt lat="46.09487697" lon="7.51002238"><ele>1505.081299</ele><time>2009-06-09T14:03:13Z</time></trkpt>
<trkpt lat="46.09474227" lon="7.51011039"><ele>1507.484619</ele><time>2009-06-09T14:03:23Z</time></trkpt>
<trkpt lat="46.09456516" lon="7.51026898"><ele>1511.329834</ele><time>2009-06-09T14:03:35Z</time></trkpt>
<trkpt lat="46.09447866" lon="7.51051599"><ele>1512.771729</ele><time>2009-06-09T14:03:46Z</time></trkpt>
<trkpt lat="46.09445469" lon="7.51076954"><ele>1515.175049</ele><time>2009-06-09T14:03:56Z</time></trkpt>
<trkpt lat="46.09440456" lon="7.51102586"><ele>1514.213623</ele><time>2009-06-09T14:04:06Z</time></trkpt>
<trkpt lat="46.09437162" lon="7.51137673"><ele>1519.020508</ele><time>2009-06-09T14:04:19Z</time></trkpt>
<trkpt lat="46.09423298" lon="7.51183824"><ele>1521.423584</ele><time>2009-06-09T14:04:40Z</time></trkpt>
<trkpt lat="46.09401891" lon="7.51181343"><ele>1523.346436</ele><time>2009-06-09T14:04:55Z</time></trkpt>
<trkpt lat="46.09380450" lon="7.51171527"><ele>1529.114014</ele><time>2009-06-09T14:05:09Z</time></trkpt>
<trkpt lat="46.09357668" lon="7.51163514"><ele>1545.456543</ele><time>2009-06-09T14:05:38Z</time></trkpt>
<trkpt lat="46.09343134" lon="7.51162358"><ele>1545.456543</ele><time>2009-06-09T14:05:47Z</time></trkpt>
<trkpt lat="46.09324719" lon="7.51182583"><ele>1542.572754</ele><time>2009-06-09T14:05:59Z</time></trkpt>
<trkpt lat="46.09306077" lon="7.51198366"><ele>1544.014648</ele><time>2009-06-09T14:06:11Z</time></trkpt>
<trkpt lat="46.09278115" lon="7.51219899"><ele>1544.014648</ele><time>2009-06-09T14:06:27Z</time></trkpt>
<trkpt lat="46.09256825" lon="7.51237091"><ele>1546.898438</ele><time>2009-06-09T14:06:43Z</time></trkpt>
<trkpt lat="46.09238176" lon="7.51253461"><ele>1546.898438</ele><time>2009-06-09T14:06:54Z</time></trkpt>
<trkpt lat="46.09223834" lon="7.51273896"><ele>1548.340576</ele><time>2009-06-09T14:07:06Z</time></trkpt>
<trkpt lat="46.09194607" lon="7.51274549"><ele>1549.302002</ele><time>2009-06-09T14:07:19Z</time></trkpt>
<trkpt lat="46.09146385" lon="7.51282177"><ele>1549.782715</ele><time>2009-06-09T14:07:40Z</time></trkpt>
<trkpt lat="46.09119153" lon="7.51285119"><ele>1552.185791</ele><time>2009-06-09T14:07:53Z</time></trkpt>
<trkpt lat="46.09074343" lon="7.51282437"><ele>1554.589111</ele><time>2009-06-09T14:08:10Z</time></trkpt>
<trkpt lat="46.09036205" lon="7.51281833"><ele>1556.992432</ele><time>2009-06-09T14:08:24Z</time></trkpt>
<trkpt lat="46.08994438" lon="7.51293560"><ele>1556.511719</ele><time>2009-06-09T14:08:57Z</time></trkpt>
<trkpt lat="46.09016558" lon="7.51304272"><ele>1556.031006</ele><time>2009-06-09T14:09:09Z</time></trkpt>
<trkpt lat="46.09031553" lon="7.51311321"><ele>1556.031006</ele><time>2009-06-09T14:09:21Z</time></trkpt>
<trkpt lat="46.09058828" lon="7.51314003"><ele>1554.589111</ele><time>2009-06-09T14:09:32Z</time></trkpt>
<trkpt lat="46.09086723" lon="7.51316492"><ele>1558.434326</ele><time>2009-06-09T14:09:48Z</time></trkpt>
<trkpt lat="46.09115750" lon="7.51321186"><ele>1561.318359</ele><time>2009-06-09T14:10:04Z</time></trkpt>
<trkpt lat="46.09156058" lon="7.51326417"><ele>1561.799072</ele><time>2009-06-09T14:10:18Z</time></trkpt>
<trkpt lat="46.09198445" lon="7.51341043"><ele>1566.125</ele><time>2009-06-09T14:10:39Z</time></trkpt>
<trkpt lat="46.09219853" lon="7.51351755"><ele>1571.892822</ele><time>2009-06-09T14:10:54Z</time></trkpt>
<trkpt lat="46.09239634" lon="7.51357606"><ele>1579.583252</ele><time>2009-06-09T14:11:08Z</time></trkpt>
<trkpt lat="46.09258896" lon="7.51363012"><ele>1583.909424</ele><time>2009-06-09T14:11:23Z</time></trkpt>
<trkpt lat="46.09277847" lon="7.51363733"><ele>1585.832031</ele><time>2009-06-09T14:11:36Z</time></trkpt>
<trkpt lat="46.09289171" lon="7.51358134"><ele>1585.351318</ele><time>2009-06-09T14:11:46Z</time></trkpt>
<trkpt lat="46.09301065" lon="7.51347807"><ele>1590.638428</ele><time>2009-06-09T14:11:55Z</time></trkpt>
<trkpt lat="46.09318567" lon="7.51338067"><ele>1596.887207</ele><time>2009-06-09T14:12:06Z</time></trkpt>
<trkpt lat="46.09334844" lon="7.51339300"><ele>1601.693848</ele><time>2009-06-09T14:12:17Z</time></trkpt>
<trkpt lat="46.09349420" lon="7.51344446"><ele>1605.539063</ele><time>2009-06-09T14:12:29Z</time></trkpt>
<trkpt lat="46.09361767" lon="7.51349936"><ele>1608.903564</ele><time>2009-06-09T14:12:39Z</time></trkpt>
<trkpt lat="46.09374792" lon="7.51353172"><ele>1612.749023</ele><time>2009-06-09T14:12:49Z</time></trkpt>
<trkpt lat="46.09389243" lon="7.51357656"><ele>1613.710205</ele><time>2009-06-09T14:13:00Z</time></trkpt>
<trkpt lat="46.09402578" lon="7.51362249"><ele>1615.633057</ele><time>2009-06-09T14:13:10Z</time></trkpt>
<trkpt lat="46.09411061" lon="7.51378435"><ele>1618.997559</ele><time>2009-06-09T14:13:20Z</time></trkpt>
<trkpt lat="46.09425385" lon="7.51399892"><ele>1623.803955</ele><time>2009-06-09T14:13:32Z</time></trkpt>
<trkpt lat="46.09438629" lon="7.51423261"><ele>1624.284668</ele><time>2009-06-09T14:13:42Z</time></trkpt>
<trkpt lat="46.09460028" lon="7.51432448"><ele>1621.881348</ele><time>2009-06-09T14:13:47Z</time></trkpt>
<trkpt lat="46.09511996" lon="7.51437183"><ele>1619.95874</ele><time>2009-06-09T14:13:58Z</time></trkpt>
<trkpt lat="46.09544928" lon="7.51426932"><ele>1616.594238</ele><time>2009-06-09T14:14:04Z</time></trkpt>
<trkpt lat="46.09568037" lon="7.51407444"><ele>1615.152344</ele><time>2009-06-09T14:14:08Z</time></trkpt>
<trkpt lat="46.09597106" lon="7.51402851"><ele>1615.152344</ele><time>2009-06-09T14:14:13Z</time></trkpt>
<trkpt lat="46.09613953" lon="7.51410227"><ele>1614.671631</ele><time>2009-06-09T14:14:16Z</time></trkpt>
<trkpt lat="46.09634472" lon="7.51424309"><ele>1617.074951</ele><time>2009-06-09T14:14:22Z</time></trkpt>
<trkpt lat="46.09654991" lon="7.51430922"><ele>1619.95874</ele><time>2009-06-09T14:14:30Z</time></trkpt>
<trkpt lat="46.09672702" lon="7.51427318"><ele>1621.400635</ele><time>2009-06-09T14:14:37Z</time></trkpt>
<trkpt lat="46.09695459" lon="7.51420881"><ele>1622.842773</ele><time>2009-06-09T14:14:46Z</time></trkpt>
<trkpt lat="46.09709448" lon="7.51420939"><ele>1624.765381</ele><time>2009-06-09T14:14:53Z</time></trkpt>
<trkpt lat="46.09724904" lon="7.51411920"><ele>1628.130127</ele><time>2009-06-09T14:15:02Z</time></trkpt>
<trkpt lat="46.09739179" lon="7.51398400"><ele>1630.052734</ele><time>2009-06-09T14:15:11Z</time></trkpt>
<trkpt lat="46.09760385" lon="7.51371486"><ele>1633.897949</ele><time>2009-06-09T14:15:23Z</time></trkpt>
<trkpt lat="46.09775640" lon="7.51342460"><ele>1636.30127</ele><time>2009-06-09T14:15:33Z</time></trkpt>
<trkpt lat="46.09794013" lon="7.51316685"><ele>1635.820557</ele><time>2009-06-09T14:15:42Z</time></trkpt>
<trkpt lat="46.09803745" lon="7.51300676"><ele>1636.30127</ele><time>2009-06-09T14:15:47Z</time></trkpt>
<trkpt lat="46.09826971" lon="7.51299134"><ele>1639.665771</ele><time>2009-06-09T14:15:55Z</time></trkpt>
<trkpt lat="46.09857867" lon="7.51297717"><ele>1642.069092</ele><time>2009-06-09T14:16:05Z</time></trkpt>
<trkpt lat="46.09861538" lon="7.51306535"><ele>1642.069092</ele><time>2009-06-09T14:16:10Z</time></trkpt>
<trkpt lat="46.09862535" lon="7.51341906"><ele>1646.875732</ele><time>2009-06-09T14:16:27Z</time></trkpt>
<trkpt lat="46.09863709" lon="7.51370732"><ele>1653.124268</ele><time>2009-06-09T14:16:39Z</time></trkpt>
<trkpt lat="46.09854640" lon="7.51393371"><ele>1656.48877</ele><time>2009-06-09T14:16:51Z</time></trkpt>
<trkpt lat="46.09846593" lon="7.51416631"><ele>1660.814941</ele><time>2009-06-09T14:17:03Z</time></trkpt>
<trkpt lat="46.09846182" lon="7.51418852"><ele>1661.295654</ele><time>2009-06-09T14:17:04Z</time></trkpt>
<trkpt lat="46.09852024" lon="7.51424988"><ele>1662.737549</ele><time>2009-06-09T14:17:10Z</time></trkpt>
<trkpt lat="46.09861538" lon="7.51418165"><ele>1664.660156</ele><time>2009-06-09T14:17:18Z</time></trkpt>
<trkpt lat="46.09862720" lon="7.51417981"><ele>1664.660156</ele><time>2009-06-09T14:17:19Z</time></trkpt>
<trkpt lat="46.09863617" lon="7.51428978"><ele>1666.102051</ele><time>2009-06-09T14:17:25Z</time></trkpt>
<trkpt lat="46.09860616" lon="7.51468113"><ele>1669.466797</ele><time>2009-06-09T14:17:41Z</time></trkpt>
<trkpt lat="46.09854975" lon="7.51487785"><ele>1673.312012</ele><time>2009-06-09T14:17:50Z</time></trkpt>
<trkpt lat="46.09798204" lon="7.51557908"><ele>1670.427979</ele><time>2009-06-09T14:18:08Z</time></trkpt>
<trkpt lat="46.09768490" lon="7.51601863"><ele>1666.102051</ele><time>2009-06-09T14:18:23Z</time></trkpt>
<trkpt lat="46.09765951" lon="7.51619398"><ele>1667.063477</ele><time>2009-06-09T14:18:30Z</time></trkpt>
<trkpt lat="46.09758709" lon="7.51638852"><ele>1670.427979</ele><time>2009-06-09T14:18:40Z</time></trkpt>
<trkpt lat="46.09739103" lon="7.51653629"><ele>1669.947266</ele><time>2009-06-09T14:18:51Z</time></trkpt>
<trkpt lat="46.09724695" lon="7.51671416"><ele>1673.312012</ele><time>2009-06-09T14:19:03Z</time></trkpt>
<trkpt lat="46.09712407" lon="7.51687895"><ele>1679.560547</ele><time>2009-06-09T14:19:14Z</time></trkpt>
<trkpt lat="46.09702106" lon="7.51704499"><ele>1682.925049</ele><time>2009-06-09T14:19:24Z</time></trkpt>
<trkpt lat="46.09688854" lon="7.51714046"><ele>1682.925049</ele><time>2009-06-09T14:19:33Z</time></trkpt>
<trkpt lat="46.09676683" lon="7.51723627"><ele>1683.886475</ele><time>2009-06-09T14:19:43Z</time></trkpt>
<trkpt lat="46.09657304" lon="7.51733970"><ele>1686.289795</ele><time>2009-06-09T14:19:55Z</time></trkpt>
<trkpt lat="46.09633584" lon="7.51752192"><ele>1687.731689</ele><time>2009-06-09T14:20:12Z</time></trkpt>
<trkpt lat="46.09601875" lon="7.51773977"><ele>1686.770264</ele><time>2009-06-09T14:20:34Z</time></trkpt>
<trkpt lat="46.09595790" lon="7.51783934"><ele>1689.173584</ele><time>2009-06-09T14:20:44Z</time></trkpt>
<trkpt lat="46.09580057" lon="7.51784421"><ele>1690.615479</ele><time>2009-06-09T14:20:57Z</time></trkpt>
<trkpt lat="46.09550653" lon="7.51787698"><ele>1689.654297</ele><time>2009-06-09T14:21:16Z</time></trkpt>
<trkpt lat="46.09545624" lon="7.51787597"><ele>1689.173584</ele><time>2009-06-09T14:21:23Z</time></trkpt>
<trkpt lat="46.09544870" lon="7.51772493"><ele>1692.057861</ele><time>2009-06-09T14:21:31Z</time></trkpt>
<trkpt lat="46.09538801" lon="7.51757967"><ele>1700.709473</ele><time>2009-06-09T14:21:43Z</time></trkpt>
<trkpt lat="46.09537737" lon="7.51773734"><ele>1718.974609</ele><time>2009-06-09T14:21:56Z</time></trkpt>
<trkpt lat="46.09515776" lon="7.51792752"><ele>1712.726074</ele><time>2009-06-09T14:22:11Z</time></trkpt>
<trkpt lat="46.09508886" lon="7.51797413"><ele>1716.090576</ele><time>2009-06-09T14:22:20Z</time></trkpt>
<trkpt lat="46.09499163" lon="7.51803959"><ele>1718.493896</ele><time>2009-06-09T14:22:30Z</time></trkpt>
<trkpt lat="46.09490689" lon="7.51807060"><ele>1721.858398</ele><time>2009-06-09T14:22:40Z</time></trkpt>
<trkpt lat="46.09479147" lon="7.51805468"><ele>1724.742676</ele><time>2009-06-09T14:22:52Z</time></trkpt>
<trkpt lat="46.09448176" lon="7.51783750"><ele>1731.47168</ele><time>2009-06-09T14:23:13Z</time></trkpt>
<trkpt lat="46.09424723" lon="7.51778210"><ele>1734.836426</ele><time>2009-06-09T14:23:29Z</time></trkpt>
<trkpt lat="46.09395965" lon="7.51771730"><ele>1733.394287</ele><time>2009-06-09T14:23:48Z</time></trkpt>
<trkpt lat="46.09379201" lon="7.51775695"><ele>1737.239502</ele><time>2009-06-09T14:24:01Z</time></trkpt>
<trkpt lat="46.09362387" lon="7.51782862"><ele>1743.488281</ele><time>2009-06-09T14:24:16Z</time></trkpt>
<trkpt lat="46.09346822" lon="7.51799935"><ele>1747.814209</ele><time>2009-06-09T14:24:34Z</time></trkpt>
<trkpt lat="46.09343369" lon="7.51807529"><ele>1750.697998</ele><time>2009-06-09T14:24:39Z</time></trkpt>
<trkpt lat="46.09335154" lon="7.51821393"><ele>1756.466064</ele><time>2009-06-09T14:24:49Z</time></trkpt>
<trkpt lat="46.09322833" lon="7.51841879"><ele>1756.466064</ele><time>2009-06-09T14:25:02Z</time></trkpt>
<trkpt lat="46.09315591" lon="7.51857150"><ele>1758.869385</ele><time>2009-06-09T14:25:12Z</time></trkpt>
<trkpt lat="46.09307771" lon="7.51865717"><ele>1760.311279</ele><time>2009-06-09T14:25:18Z</time></trkpt>
<trkpt lat="46.09285282" lon="7.51873570"><ele>1763.675781</ele><time>2009-06-09T14:25:33Z</time></trkpt>
<trkpt lat="46.09248611" lon="7.51901482"><ele>1762.7146</ele><time>2009-06-09T14:25:59Z</time></trkpt>
<trkpt lat="46.09232627" lon="7.51918766"><ele>1761.272705</ele><time>2009-06-09T14:26:12Z</time></trkpt>
<trkpt lat="46.09213659" lon="7.51936535"><ele>1763.675781</ele><time>2009-06-09T14:26:28Z</time></trkpt>
<trkpt lat="46.09194975" lon="7.51951430"><ele>1766.079102</ele><time>2009-06-09T14:26:42Z</time></trkpt>
<trkpt lat="46.09181631" lon="7.51967515"><ele>1773.769775</ele><time>2009-06-09T14:26:57Z</time></trkpt>
<trkpt lat="46.09169461" lon="7.51977213"><ele>1777.61499</ele><time>2009-06-09T14:27:07Z</time></trkpt>
<trkpt lat="46.09147249" lon="7.51988922"><ele>1785.30542</ele><time>2009-06-09T14:27:25Z</time></trkpt>
<trkpt lat="46.09131340" lon="7.51997137"><ele>1783.382813</ele><time>2009-06-09T14:27:36Z</time></trkpt>
<trkpt lat="46.09114408" lon="7.52015200"><ele>1777.61499</ele><time>2009-06-09T14:27:51Z</time></trkpt>
<trkpt lat="46.09117149" lon="7.52013179"><ele>1792.996094</ele><time>2009-06-09T14:28:57Z</time></trkpt>
<trkpt lat="46.09031579" lon="7.51964305"><ele>1793.95752</ele><time>2009-06-09T14:29:09Z</time></trkpt>
<trkpt lat="46.08964473" lon="7.51963986"><ele>1792.515625</ele><time>2009-06-09T14:29:22Z</time></trkpt>
<trkpt lat="46.08949218" lon="7.51966903"><ele>1791.073486</ele><time>2009-06-09T14:29:24Z</time></trkpt>
<trkpt lat="46.08933058" lon="7.51972787"><ele>1789.631592</ele><time>2009-06-09T14:29:26Z</time></trkpt>
<trkpt lat="46.08895130" lon="7.51968211"><ele>1782.421631</ele><time>2009-06-09T14:29:31Z</time></trkpt>
<trkpt lat="46.08863773" lon="7.51966626"><ele>1775.21167</ele><time>2009-06-09T14:29:36Z</time></trkpt>
<trkpt lat="46.08853321" lon="7.51969040"><ele>1774.731201</ele><time>2009-06-09T14:29:38Z</time></trkpt>
<trkpt lat="46.08840446" lon="7.51987698"><ele>1773.289307</ele><time>2009-06-09T14:29:42Z</time></trkpt>
<trkpt lat="46.08827873" lon="7.52001001"><ele>1770.405029</ele><time>2009-06-09T14:29:47Z</time></trkpt>
<trkpt lat="46.08823565" lon="7.51995712"><ele>1769.924316</ele><time>2009-06-09T14:29:48Z</time></trkpt>
<trkpt lat="46.08799333" lon="7.51965369"><ele>1768.001709</ele><time>2009-06-09T14:29:53Z</time></trkpt>
<trkpt lat="46.08786852" lon="7.51973826"><ele>1763.675781</ele><time>2009-06-09T14:29:57Z</time></trkpt>
<trkpt lat="46.08774581" lon="7.51960935"><ele>1758.869385</ele><time>2009-06-09T14:30:01Z</time></trkpt>
<trkpt lat="46.08770155" lon="7.51949410"><ele>1755.985107</ele><time>2009-06-09T14:30:03Z</time></trkpt>
<trkpt lat="46.08766241" lon="7.51938413"><ele>1753.101318</ele><time>2009-06-09T14:30:05Z</time></trkpt>
<trkpt lat="46.08756007" lon="7.51876638"><ele>1740.604248</ele><time>2009-06-09T14:30:13Z</time></trkpt>
<trkpt lat="46.08739385" lon="7.51856924"><ele>1736.758789</ele><time>2009-06-09T14:30:17Z</time></trkpt>
<trkpt lat="46.08731951" lon="7.51847821"><ele>1734.355713</ele><time>2009-06-09T14:30:20Z</time></trkpt>
<trkpt lat="46.08729562" lon="7.51846472"><ele>1733.875</ele><time>2009-06-09T14:30:22Z</time></trkpt>
<trkpt lat="46.08723292" lon="7.51855273"><ele>1733.394287</ele><time>2009-06-09T14:30:26Z</time></trkpt>
<trkpt lat="46.08710300" lon="7.51885842"><ele>1732.433105</ele><time>2009-06-09T14:30:33Z</time></trkpt>
<trkpt lat="46.08683034" lon="7.51944087"><ele>1731.47168</ele><time>2009-06-09T14:30:43Z</time></trkpt>
<trkpt lat="46.08647830" lon="7.51986072"><ele>1730.029785</ele><time>2009-06-09T14:30:51Z</time></trkpt>
<trkpt lat="46.08627738" lon="7.52008100"><ele>1730.029785</ele><time>2009-06-09T14:30:55Z</time></trkpt>
<trkpt lat="46.08594781" lon="7.52018142"><ele>1728.587891</ele><time>2009-06-09T14:31:00Z</time></trkpt>
<trkpt lat="46.08533819" lon="7.52005326"><ele>1726.665283</ele><time>2009-06-09T14:31:09Z</time></trkpt>
<trkpt lat="46.08515153" lon="7.52009902"><ele>1726.18457</ele><time>2009-06-09T14:31:12Z</time></trkpt>
<trkpt lat="46.08459748" lon="7.52060336"><ele>1724.261963</ele><time>2009-06-09T14:31:22Z</time></trkpt>
<trkpt lat="46.08430621" lon="7.52100066"><ele>1719.455322</ele><time>2009-06-09T14:31:26Z</time></trkpt>
<trkpt lat="46.08422566" lon="7.52110778"><ele>1718.013184</ele><time>2009-06-09T14:31:27Z</time></trkpt>
<trkpt lat="46.08382693" lon="7.52140719"><ele>1714.648682</ele><time>2009-06-09T14:31:31Z</time></trkpt>
<trkpt lat="46.08334766" lon="7.52160843"><ele>1709.842041</ele><time>2009-06-09T14:31:35Z</time></trkpt>
<trkpt lat="46.08284055" lon="7.52156535"><ele>1705.0354</ele><time>2009-06-09T14:31:39Z</time></trkpt>
<trkpt lat="46.08264106" lon="7.52150081"><ele>1703.112793</ele><time>2009-06-09T14:31:41Z</time></trkpt>
<trkpt lat="46.08229388" lon="7.52170030"><ele>1700.709473</ele><time>2009-06-09T14:31:45Z</time></trkpt>
<trkpt lat="46.08223069" lon="7.52180105"><ele>1700.709473</ele><time>2009-06-09T14:31:46Z</time></trkpt>
<trkpt lat="46.08186758" lon="7.52228527"><ele>1697.825684</ele><time>2009-06-09T14:31:51Z</time></trkpt>
<trkpt lat="46.08114883" lon="7.52279674"><ele>1693.019043</ele><time>2009-06-09T14:31:59Z</time></trkpt>
<trkpt lat="46.08070308" lon="7.52337852"><ele>1691.576904</ele><time>2009-06-09T14:32:05Z</time></trkpt>
<trkpt lat="46.08059538" lon="7.52361883"><ele>1691.096191</ele><time>2009-06-09T14:32:07Z</time></trkpt>
<trkpt lat="46.08019480" lon="7.52420691"><ele>1690.615479</ele><time>2009-06-09T14:32:13Z</time></trkpt>
<trkpt lat="46.07999884" lon="7.52462475"><ele>1690.615479</ele><time>2009-06-09T14:32:17Z</time></trkpt>
<trkpt lat="46.07965157" lon="7.52538457"><ele>1692.057861</ele><time>2009-06-09T14:32:25Z</time></trkpt>
<trkpt lat="46.07937874" lon="7.52576217"><ele>1692.057861</ele><time>2009-06-09T14:32:30Z</time></trkpt>
<trkpt lat="46.07892436" lon="7.52621756"><ele>1690.615479</ele><time>2009-06-09T14:32:39Z</time></trkpt>
<trkpt lat="46.07877684" lon="7.52630825"><ele>1693.019043</ele><time>2009-06-09T14:32:42Z</time></trkpt>
<trkpt lat="46.07865773" lon="7.52630347"><ele>1694.460938</ele><time>2009-06-09T14:32:45Z</time></trkpt>
<trkpt lat="46.07852597" lon="7.52650439"><ele>1696.864258</ele><time>2009-06-09T14:32:50Z</time></trkpt>
<trkpt lat="46.07848791" lon="7.52670488"><ele>1697.344971</ele><time>2009-06-09T14:32:53Z</time></trkpt>
<trkpt lat="46.07834341" lon="7.52712364"><ele>1696.864258</ele><time>2009-06-09T14:33:00Z</time></trkpt>
<trkpt lat="46.07808852" lon="7.52742070"><ele>1697.344971</ele><time>2009-06-09T14:33:07Z</time></trkpt>
<trkpt lat="46.07778375" lon="7.52763905"><ele>1698.306152</ele><time>2009-06-09T14:33:13Z</time></trkpt>
<trkpt lat="46.07762257" lon="7.52790098"><ele>1697.825684</ele><time>2009-06-09T14:33:17Z</time></trkpt>
<trkpt lat="46.07736147" lon="7.52822377"><ele>1697.344971</ele><time>2009-06-09T14:33:22Z</time></trkpt>
<trkpt lat="46.07716718" lon="7.52853977"><ele>1697.344971</ele><time>2009-06-09T14:33:26Z</time></trkpt>
<trkpt lat="46.07700356" lon="7.52900111"><ele>1693.019043</ele><time>2009-06-09T14:33:30Z</time></trkpt>
<trkpt lat="46.07679133" lon="7.52953520"><ele>1687.731689</ele><time>2009-06-09T14:33:34Z</time></trkpt>
<trkpt lat="46.07668497" lon="7.52989814"><ele>1685.809082</ele><time>2009-06-09T14:33:37Z</time></trkpt>
<trkpt lat="46.07647249" lon="7.53009478"><ele>1683.886475</ele><time>2009-06-09T14:33:40Z</time></trkpt>
<trkpt lat="46.07606018" lon="7.53052988"><ele>1680.04126</ele><time>2009-06-09T14:33:45Z</time></trkpt>
<trkpt lat="46.07556615" lon="7.53113489"><ele>1678.118652</ele><time>2009-06-09T14:33:51Z</time></trkpt>
<trkpt lat="46.07531126" lon="7.53150386"><ele>1677.157471</ele><time>2009-06-09T14:33:55Z</time></trkpt>
<trkpt lat="46.07509215" lon="7.53217005"><ele>1678.118652</ele><time>2009-06-09T14:34:02Z</time></trkpt>
<trkpt lat="46.07498654" lon="7.53260725"><ele>1678.118652</ele><time>2009-06-09T14:34:09Z</time></trkpt>
<trkpt lat="46.07458505" lon="7.53365608"><ele>1678.118652</ele><time>2009-06-09T14:34:29Z</time></trkpt>
<trkpt lat="46.07442177" lon="7.53406118"><ele>1680.04126</ele><time>2009-06-09T14:34:37Z</time></trkpt>
<trkpt lat="46.07430526" lon="7.53426444"><ele>1683.405762</ele><time>2009-06-09T14:34:44Z</time></trkpt>
<trkpt lat="46.07399278" lon="7.53447331"><ele>1687.250977</ele><time>2009-06-09T14:34:58Z</time></trkpt>
<trkpt lat="46.07389899" lon="7.53449092"><ele>1689.173584</ele><time>2009-06-09T14:35:02Z</time></trkpt>
<trkpt lat="46.07386261" lon="7.53457683"><ele>1690.13501</ele><time>2009-06-09T14:35:05Z</time></trkpt>
<trkpt lat="46.07380469" lon="7.53479627"><ele>1690.13501</ele><time>2009-06-09T14:35:11Z</time></trkpt>
<trkpt lat="46.07182179" lon="7.53839973"><ele>1704.554688</ele><time>2009-06-09T14:36:46Z</time></trkpt>
<trkpt lat="46.07126053" lon="7.53891807"><ele>1717.052002</ele><time>2009-06-09T14:37:18Z</time></trkpt>
<trkpt lat="46.07008514" lon="7.53895520"><ele>1714.648682</ele><time>2009-06-09T14:38:09Z</time></trkpt>
<trkpt lat="46.06991256" lon="7.53893903"><ele>1725.703857</ele><time>2009-06-09T14:38:16Z</time></trkpt>
<trkpt lat="46.06981918" lon="7.53907255"><ele>1726.18457</ele><time>2009-06-09T14:38:22Z</time></trkpt>
<trkpt lat="46.06967107" lon="7.53925192"><ele>1727.145996</ele><time>2009-06-09T14:38:29Z</time></trkpt>
<trkpt lat="46.06947645" lon="7.53937279"><ele>1727.145996</ele><time>2009-06-09T14:38:35Z</time></trkpt>
<trkpt lat="46.06932239" lon="7.53928293"><ele>1727.626465</ele><time>2009-06-09T14:38:39Z</time></trkpt>
<trkpt lat="46.06887178" lon="7.53902293"><ele>1732.433105</ele><time>2009-06-09T14:38:52Z</time></trkpt>
<trkpt lat="46.06856911" lon="7.53907490"><ele>1734.836426</ele><time>2009-06-09T14:39:01Z</time></trkpt>
<trkpt lat="46.06854488" lon="7.53909719"><ele>1735.316895</ele><time>2009-06-09T14:39:02Z</time></trkpt>
<trkpt lat="46.06837926" lon="7.53931512"><ele>1737.720215</ele><time>2009-06-09T14:39:09Z</time></trkpt>
<trkpt lat="46.06813828" lon="7.53955401"><ele>1741.084961</ele><time>2009-06-09T14:39:20Z</time></trkpt>
<trkpt lat="46.06804524" lon="7.53977520"><ele>1741.565674</ele><time>2009-06-09T14:39:25Z</time></trkpt>
<trkpt lat="46.06795823" lon="7.54054047"><ele>1744.930176</ele><time>2009-06-09T14:39:36Z</time></trkpt>
<trkpt lat="46.06794340" lon="7.54110231"><ele>1745.891602</ele><time>2009-06-09T14:39:44Z</time></trkpt>
<trkpt lat="46.06796636" lon="7.54189013"><ele>1747.333496</ele><time>2009-06-09T14:39:56Z</time></trkpt>
<trkpt lat="46.06777593" lon="7.54199616"><ele>1748.294678</ele><time>2009-06-09T14:40:01Z</time></trkpt>
<trkpt lat="46.06752246" lon="7.54216840"><ele>1751.659424</ele><time>2009-06-09T14:40:10Z</time></trkpt>
<trkpt lat="46.06641563" lon="7.54299226"><ele>1758.869385</ele><time>2009-06-09T14:40:54Z</time></trkpt>
<trkpt lat="46.06606535" lon="7.54331849"><ele>1761.272705</ele><time>2009-06-09T14:41:07Z</time></trkpt>
<trkpt lat="46.06574650" lon="7.54351311"><ele>1763.675781</ele><time>2009-06-09T14:41:18Z</time></trkpt>
<trkpt lat="46.06548834" lon="7.54361914"><ele>1769.924316</ele><time>2009-06-09T14:41:28Z</time></trkpt>
<trkpt lat="46.06533495" lon="7.54369165"><ele>1768.482422</ele><time>2009-06-09T14:41:35Z</time></trkpt>
<trkpt lat="46.06512071" lon="7.54390690"><ele>1775.692383</ele><time>2009-06-09T14:41:46Z</time></trkpt>
<trkpt lat="46.06501484" lon="7.54428207"><ele>1777.134521</ele><time>2009-06-09T14:41:56Z</time></trkpt>
<trkpt lat="46.06484771" lon="7.54487308"><ele>1780.018311</ele><time>2009-06-09T14:42:13Z</time></trkpt>
<trkpt lat="46.06467512" lon="7.54519084"><ele>1780.979736</ele><time>2009-06-09T14:42:24Z</time></trkpt>
<trkpt lat="46.06459994" lon="7.54551781"><ele>1782.9021</ele><time>2009-06-09T14:42:35Z</time></trkpt>
<trkpt lat="46.06461419" lon="7.54574773"><ele>1787.70874</ele><time>2009-06-09T14:42:44Z</time></trkpt>
<trkpt lat="46.06459910" lon="7.54597764"><ele>1790.112305</ele><time>2009-06-09T14:42:51Z</time></trkpt>
<trkpt lat="46.06438410" lon="7.54642105"><ele>1788.67041</ele><time>2009-06-09T14:43:09Z</time></trkpt>
<trkpt lat="46.06414849" lon="7.54659422"><ele>1794.437988</ele><time>2009-06-09T14:43:22Z</time></trkpt>
<trkpt lat="46.06362781" lon="7.54671542"><ele>1803.089844</ele><time>2009-06-09T14:43:44Z</time></trkpt>
<trkpt lat="46.06352462" lon="7.54672321"><ele>1804.531982</ele><time>2009-06-09T14:43:48Z</time></trkpt>
<trkpt lat="46.06318365" lon="7.54701457"><ele>1809.819092</ele><time>2009-06-09T14:44:06Z</time></trkpt>
<trkpt lat="46.06269364" lon="7.54727793"><ele>1815.587158</ele><time>2009-06-09T14:44:29Z</time></trkpt>
<trkpt lat="46.06222644" lon="7.54767473"><ele>1821.835693</ele><time>2009-06-09T14:44:52Z</time></trkpt>
<trkpt lat="46.06201555" lon="7.54779384"><ele>1820.874512</ele><time>2009-06-09T14:45:01Z</time></trkpt>
<trkpt lat="46.06159436" lon="7.54755478"><ele>1822.316406</ele><time>2009-06-09T14:45:20Z</time></trkpt>
<trkpt lat="46.06161741" lon="7.54785293"><ele>1822.316406</ele><time>2009-06-09T14:45:27Z</time></trkpt>
<trkpt lat="46.06167725" lon="7.54793440"><ele>1824.719727</ele><time>2009-06-09T14:45:30Z</time></trkpt>
<trkpt lat="46.06193273" lon="7.54813540"><ele>1825.680908</ele><time>2009-06-09T14:45:39Z</time></trkpt>
<trkpt lat="46.06235325" lon="7.54796089"><ele>1828.084229</ele><time>2009-06-09T14:45:46Z</time></trkpt>
<trkpt lat="46.06273865" lon="7.54782736"><ele>1831.929443</ele><time>2009-06-09T14:45:54Z</time></trkpt>
<trkpt lat="46.06291702" lon="7.54781085"><ele>1832.890625</ele><time>2009-06-09T14:45:58Z</time></trkpt>
<trkpt lat="46.06307200" lon="7.54772217"><ele>1834.332764</ele><time>2009-06-09T14:46:02Z</time></trkpt>
<trkpt lat="46.06331684" lon="7.54748949"><ele>1834.813477</ele><time>2009-06-09T14:46:09Z</time></trkpt>
<trkpt lat="46.06336327" lon="7.54775670"><ele>1836.255615</ele><time>2009-06-09T14:46:16Z</time></trkpt>
<trkpt lat="46.06329186" lon="7.54785729"><ele>1839.139404</ele><time>2009-06-09T14:46:21Z</time></trkpt>
<trkpt lat="46.06300377" lon="7.54797941"><ele>1845.868652</ele><time>2009-06-09T14:46:34Z</time></trkpt>
<trkpt lat="46.06281283" lon="7.54813481"><ele>1845.387939</ele><time>2009-06-09T14:46:44Z</time></trkpt>
<trkpt lat="46.06254193" lon="7.54832131"><ele>1847.310547</ele><time>2009-06-09T14:46:58Z</time></trkpt>
<trkpt lat="46.06203943" lon="7.54848878"><ele>1854.040039</ele><time>2009-06-09T14:47:23Z</time></trkpt>
<trkpt lat="46.06175537" lon="7.54866363"><ele>1859.807617</ele><time>2009-06-09T14:47:38Z</time></trkpt>
<trkpt lat="46.06129847" lon="7.54877184"><ele>1869.901611</ele><time>2009-06-09T14:47:58Z</time></trkpt>
<trkpt lat="46.06104132" lon="7.54941070"><ele>1865.094971</ele><time>2009-06-09T14:48:19Z</time></trkpt>
<trkpt lat="46.06067486" lon="7.54990557"><ele>1870.863037</ele><time>2009-06-09T14:48:38Z</time></trkpt>
<trkpt lat="46.06052466" lon="7.55011193"><ele>1871.824219</ele><time>2009-06-09T14:48:45Z</time></trkpt>
<trkpt lat="46.05994471" lon="7.55024697"><ele>1872.304932</ele><time>2009-06-09T14:49:02Z</time></trkpt>
<trkpt lat="46.05976031" lon="7.55032249"><ele>1875.188721</ele><time>2009-06-09T14:49:08Z</time></trkpt>
<trkpt lat="46.05963198" lon="7.55054612"><ele>1876.630859</ele><time>2009-06-09T14:49:14Z</time></trkpt>
<trkpt lat="46.05939905" lon="7.55048401"><ele>1876.630859</ele><time>2009-06-09T14:49:22Z</time></trkpt>
<trkpt lat="46.05923837" lon="7.55023574"><ele>1878.553467</ele><time>2009-06-09T14:49:29Z</time></trkpt>
<trkpt lat="46.05907090" lon="7.54987389"><ele>1880.476074</ele><time>2009-06-09T14:49:38Z</time></trkpt>
<trkpt lat="46.05898172" lon="7.54962671"><ele>1881.917969</ele><time>2009-06-09T14:49:44Z</time></trkpt>
<trkpt lat="46.05884744" lon="7.54942923"><ele>1883.840576</ele><time>2009-06-09T14:49:51Z</time></trkpt>
<trkpt lat="46.05879840" lon="7.54920501"><ele>1885.763428</ele><time>2009-06-09T14:49:59Z</time></trkpt>
<trkpt lat="46.05879656" lon="7.54918104"><ele>1885.763428</ele><time>2009-06-09T14:50:00Z</time></trkpt>
<trkpt lat="46.05847059" lon="7.54920619"><ele>1891.53125</ele><time>2009-06-09T14:50:24Z</time></trkpt>
<trkpt lat="46.05841217" lon="7.54910803"><ele>1893.93457</ele><time>2009-06-09T14:50:30Z</time></trkpt>
<trkpt lat="46.05840445" lon="7.54908557"><ele>1894.415039</ele><time>2009-06-09T14:50:31Z</time></trkpt>
<trkpt lat="46.05834721" lon="7.54904877"><ele>1894.415039</ele><time>2009-06-09T14:50:35Z</time></trkpt>
<trkpt lat="46.05825299" lon="7.54903478"><ele>1894.415039</ele><time>2009-06-09T14:50:41Z</time></trkpt>
<trkpt lat="46.05818435" lon="7.54906554"><ele>1894.415039</ele><time>2009-06-09T14:50:45Z</time></trkpt>
<trkpt lat="46.05796943" lon="7.54914567"><ele>1892.492676</ele><time>2009-06-09T14:50:57Z</time></trkpt>
<trkpt lat="46.05784387" lon="7.54914047"><ele>1896.337891</ele><time>2009-06-09T14:51:06Z</time></trkpt>
<trkpt lat="46.05768948" lon="7.54899798"><ele>1899.702393</ele><time>2009-06-09T14:51:14Z</time></trkpt>
<trkpt lat="46.05764112" lon="7.54897719"><ele>1900.663818</ele><time>2009-06-09T14:51:16Z</time></trkpt>
<trkpt lat="46.05741573" lon="7.54904785"><ele>1902.586426</ele><time>2009-06-09T14:51:24Z</time></trkpt>
<trkpt lat="46.05718958" lon="7.54911751"><ele>1903.547852</ele><time>2009-06-09T14:51:36Z</time></trkpt>
<trkpt lat="46.05700552" lon="7.54905883"><ele>1907.393066</ele><time>2009-06-09T14:51:45Z</time></trkpt>
<trkpt lat="46.05674216" lon="7.54900033"><ele>1907.873779</ele><time>2009-06-09T14:51:59Z</time></trkpt>
<trkpt lat="46.05662338" lon="7.54914064"><ele>1910.276855</ele><time>2009-06-09T14:52:08Z</time></trkpt>
<trkpt lat="46.05659480" lon="7.54931406"><ele>1914.602783</ele><time>2009-06-09T14:52:15Z</time></trkpt>
<trkpt lat="46.05656614" lon="7.54954549"><ele>1914.602783</ele><time>2009-06-09T14:52:25Z</time></trkpt>
<trkpt lat="46.05656354" lon="7.54979644"><ele>1919.409668</ele><time>2009-06-09T14:52:35Z</time></trkpt>
<trkpt lat="46.05656169" lon="7.54989082"><ele>1919.890137</ele><time>2009-06-09T14:52:39Z</time></trkpt>
<trkpt lat="46.05642415" lon="7.54998235"><ele>1920.851563</ele><time>2009-06-09T14:52:48Z</time></trkpt>
<trkpt lat="46.05631175" lon="7.54984363"><ele>1921.812744</ele><time>2009-06-09T14:52:55Z</time></trkpt>
<trkpt lat="46.05620605" lon="7.54965831"><ele>1923.254883</ele><time>2009-06-09T14:53:03Z</time></trkpt>
<trkpt lat="46.05607479" lon="7.54960525"><ele>1925.177246</ele><time>2009-06-09T14:53:10Z</time></trkpt>
<trkpt lat="46.05590078" lon="7.54961673"><ele>1925.657959</ele><time>2009-06-09T14:53:20Z</time></trkpt>
<trkpt lat="46.05575720" lon="7.54958949"><ele>1929.983887</ele><time>2009-06-09T14:53:29Z</time></trkpt>
<trkpt lat="46.05572484" lon="7.54960156"><ele>1930.945313</ele><time>2009-06-09T14:53:31Z</time></trkpt>
<trkpt lat="46.05572191" lon="7.54974187"><ele>1931.425781</ele><time>2009-06-09T14:53:38Z</time></trkpt>
<trkpt lat="46.05581210" lon="7.54986517"><ele>1932.387451</ele><time>2009-06-09T14:53:43Z</time></trkpt>
<trkpt lat="46.05594361" lon="7.55009408"><ele>1933.829346</ele><time>2009-06-09T14:53:51Z</time></trkpt>
<trkpt lat="46.05598854" lon="7.55027723"><ele>1934.790771</ele><time>2009-06-09T14:53:57Z</time></trkpt>
<trkpt lat="46.05596691" lon="7.55047680"><ele>1936.713135</ele><time>2009-06-09T14:54:04Z</time></trkpt>
<trkpt lat="46.05594546" lon="7.55076748"><ele>1939.116455</ele><time>2009-06-09T14:54:15Z</time></trkpt>
<trkpt lat="46.05592769" lon="7.55093546"><ele>1941.039063</ele><time>2009-06-09T14:54:23Z</time></trkpt>
<trkpt lat="46.05591302" lon="7.55094141"><ele>1941.039063</ele><time>2009-06-09T14:54:24Z</time></trkpt>
<trkpt lat="46.05582233" lon="7.55082289"><ele>1943.923096</ele><time>2009-06-09T14:54:32Z</time></trkpt>
<trkpt lat="46.05577145" lon="7.55062935"><ele>1944.884277</ele><time>2009-06-09T14:54:40Z</time></trkpt>
<trkpt lat="46.05569065" lon="7.55043648"><ele>1946.326416</ele><time>2009-06-09T14:54:48Z</time></trkpt>
<trkpt lat="46.05548495" lon="7.55021662"><ele>1947.287598</ele><time>2009-06-09T14:54:59Z</time></trkpt>
<trkpt lat="46.05532159" lon="7.55026675"><ele>1949.210449</ele><time>2009-06-09T14:55:06Z</time></trkpt>
<trkpt lat="46.05497584" lon="7.55044470"><ele>1950.171875</ele><time>2009-06-09T14:55:22Z</time></trkpt>
<trkpt lat="46.05480460" lon="7.55056330"><ele>1951.133057</ele><time>2009-06-09T14:55:30Z</time></trkpt>
<trkpt lat="46.05460946" lon="7.55074871"><ele>1950.652344</ele><time>2009-06-09T14:55:38Z</time></trkpt>
<trkpt lat="46.05442464" lon="7.55079355"><ele>1951.133057</ele><time>2009-06-09T14:55:44Z</time></trkpt>
<trkpt lat="46.05429422" lon="7.55061192"><ele>1951.133057</ele><time>2009-06-09T14:55:49Z</time></trkpt>
<trkpt lat="46.05422851" lon="7.55048074"><ele>1951.61377</ele><time>2009-06-09T14:55:52Z</time></trkpt>
<trkpt lat="46.05412533" lon="7.55050295"><ele>1952.574951</ele><time>2009-06-09T14:55:56Z</time></trkpt>
<trkpt lat="46.05399281" lon="7.55068844"><ele>1950.171875</ele><time>2009-06-09T14:56:05Z</time></trkpt>
<trkpt lat="46.05382483" lon="7.55089078"><ele>1951.133057</ele><time>2009-06-09T14:56:11Z</time></trkpt>
<trkpt lat="46.05362585" lon="7.55116831"><ele>1953.536377</ele><time>2009-06-09T14:56:19Z</time></trkpt>
<trkpt lat="46.05338478" lon="7.55125816"><ele>1954.497559</ele><time>2009-06-09T14:56:26Z</time></trkpt>
<trkpt lat="46.05330465" lon="7.55126554"><ele>1954.497559</ele><time>2009-06-09T14:56:28Z</time></trkpt>
<trkpt lat="46.05318873" lon="7.55132941"><ele>1954.978271</ele><time>2009-06-09T14:56:31Z</time></trkpt>
<trkpt lat="46.05309142" lon="7.55166988"><ele>1957.381592</ele><time>2009-06-09T14:56:37Z</time></trkpt>
<trkpt lat="46.05297466" lon="7.55188370"><ele>1957.381592</ele><time>2009-06-09T14:56:42Z</time></trkpt>
<trkpt lat="46.05279772" lon="7.55204530"><ele>1955.939453</ele><time>2009-06-09T14:56:47Z</time></trkpt>
<trkpt lat="46.05272345" lon="7.55213675"><ele>1954.978271</ele><time>2009-06-09T14:56:49Z</time></trkpt>
<trkpt lat="46.05248080" lon="7.55256079"><ele>1952.574951</ele><time>2009-06-09T14:56:56Z</time></trkpt>
<trkpt lat="46.05235364" lon="7.55276212"><ele>1948.729736</ele><time>2009-06-09T14:57:01Z</time></trkpt>
<trkpt lat="46.05224434" lon="7.55295315"><ele>1948.249023</ele><time>2009-06-09T14:57:10Z</time></trkpt>
<trkpt lat="46.05210939" lon="7.55303663"><ele>1948.729736</ele><time>2009-06-09T14:57:15Z</time></trkpt>
<trkpt lat="46.05207260" lon="7.55305457"><ele>1948.729736</ele><time>2009-06-09T14:57:16Z</time></trkpt>
<trkpt lat="46.05170229" lon="7.55320301"><ele>1951.133057</ele><time>2009-06-09T14:57:26Z</time></trkpt>
<trkpt lat="46.05150221" lon="7.55316169"><ele>1951.133057</ele><time>2009-06-09T14:57:32Z</time></trkpt>
<trkpt lat="46.05129886" lon="7.55304669"><ele>1951.61377</ele><time>2009-06-09T14:57:38Z</time></trkpt>
<trkpt lat="46.05104162" lon="7.55307536"><ele>1948.729736</ele><time>2009-06-09T14:57:45Z</time></trkpt>
<trkpt lat="46.05081053" lon="7.55304652"><ele>1951.133057</ele><time>2009-06-09T14:57:52Z</time></trkpt>
<trkpt lat="46.05059319" lon="7.55285122"><ele>1955.458984</ele><time>2009-06-09T14:58:00Z</time></trkpt>
<trkpt lat="46.05047258" lon="7.55277051"><ele>1958.342773</ele><time>2009-06-09T14:58:05Z</time></trkpt>
<trkpt lat="46.05028474" lon="7.55268208"><ele>1959.784668</ele><time>2009-06-09T14:58:13Z</time></trkpt>
<trkpt lat="46.05013671" lon="7.55262022"><ele>1960.746094</ele><time>2009-06-09T14:58:21Z</time></trkpt>
<trkpt lat="46.05012330" lon="7.55273656"><ele>1960.746094</ele><time>2009-06-09T14:58:27Z</time></trkpt>
<trkpt lat="46.05006966" lon="7.55289582"><ele>1959.784668</ele><time>2009-06-09T14:58:34Z</time></trkpt>
<trkpt lat="46.05006580" lon="7.55289967"><ele>1960.265381</ele><time>2009-06-09T14:58:35Z</time></trkpt>
<trkpt lat="46.05008936" lon="7.55286271"><ele>1956.900879</ele><time>2009-06-09T15:03:03Z</time></trkpt>
<trkpt lat="46.05009614" lon="7.55285449"><ele>1956.900879</ele><time>2009-06-09T15:03:04Z</time></trkpt>
<trkpt lat="46.05010511" lon="7.55284527"><ele>1957.381592</ele><time>2009-06-09T15:03:05Z</time></trkpt>
<trkpt lat="46.05025708" lon="7.55280973"><ele>1957.862305</ele><time>2009-06-09T15:03:08Z</time></trkpt>
<trkpt lat="46.05050049" lon="7.55278283"><ele>1958.823486</ele><time>2009-06-09T15:03:13Z</time></trkpt>
<trkpt lat="46.05063535" lon="7.55288986"><ele>1957.381592</ele><time>2009-06-09T15:03:16Z</time></trkpt>
<trkpt lat="46.05094909" lon="7.55306496"><ele>1955.458984</ele><time>2009-06-09T15:03:21Z</time></trkpt>
<trkpt lat="46.05130364" lon="7.55308617"><ele>1954.497559</ele><time>2009-06-09T15:03:26Z</time></trkpt>
<trkpt lat="46.05154378" lon="7.55321726"><ele>1953.536377</ele><time>2009-06-09T15:03:30Z</time></trkpt>
<trkpt lat="46.05172584" lon="7.55323629"><ele>1952.094238</ele><time>2009-06-09T15:03:33Z</time></trkpt>
<trkpt lat="46.05178460" lon="7.55320377"><ele>1952.094238</ele><time>2009-06-09T15:03:34Z</time></trkpt>
<trkpt lat="46.05229304" lon="7.55296270"><ele>1951.61377</ele><time>2009-06-09T15:03:46Z</time></trkpt>
<trkpt lat="46.05243143" lon="7.55290981"><ele>1951.133057</ele><time>2009-06-09T15:03:50Z</time></trkpt>
<trkpt lat="46.05242916" lon="7.55279121"><ele>1951.61377</ele><time>2009-06-09T15:03:55Z</time></trkpt>
<trkpt lat="46.05271029" lon="7.55212845"><ele>1953.536377</ele><time>2009-06-09T15:04:09Z</time></trkpt>
<trkpt lat="46.05299729" lon="7.55186308"><ele>1955.458984</ele><time>2009-06-09T15:04:16Z</time></trkpt>
<trkpt lat="46.05313869" lon="7.55150467"><ele>1955.458984</ele><time>2009-06-09T15:04:22Z</time></trkpt>
<trkpt lat="46.05326895" lon="7.55126260"><ele>1956.420166</ele><time>2009-06-09T15:04:27Z</time></trkpt>
<trkpt lat="46.05336081" lon="7.55125439"><ele>1956.900879</ele><time>2009-06-09T15:04:29Z</time></trkpt>
<trkpt lat="46.05366977" lon="7.55113528"><ele>1956.420166</ele><time>2009-06-09T15:04:36Z</time></trkpt>
<trkpt lat="46.05378184" lon="7.55100050"><ele>1955.458984</ele><time>2009-06-09T15:04:39Z</time></trkpt>
<trkpt lat="46.05385367" lon="7.55086756"><ele>1954.497559</ele><time>2009-06-09T15:04:41Z</time></trkpt>
<trkpt lat="46.05404268" lon="7.55062675"><ele>1952.574951</ele><time>2009-06-09T15:04:46Z</time></trkpt>
<trkpt lat="46.05429238" lon="7.55055157"><ele>1952.574951</ele><time>2009-06-09T15:04:55Z</time></trkpt>
<trkpt lat="46.05451441" lon="7.55079573"><ele>1953.536377</ele><time>2009-06-09T15:05:02Z</time></trkpt>
<trkpt lat="46.05469052" lon="7.55069775"><ele>1953.536377</ele><time>2009-06-09T15:05:06Z</time></trkpt>
<trkpt lat="46.05485522" lon="7.55056749"><ele>1954.01709</ele><time>2009-06-09T15:05:10Z</time></trkpt>
<trkpt lat="46.05503635" lon="7.55043028"><ele>1953.055664</ele><time>2009-06-09T15:05:14Z</time></trkpt>
<trkpt lat="46.05541061" lon="7.55020355"><ele>1953.055664</ele><time>2009-06-09T15:05:21Z</time></trkpt>
<trkpt lat="46.05569484" lon="7.55032592"><ele>1952.094238</ele><time>2009-06-09T15:05:26Z</time></trkpt>
<trkpt lat="46.05588829" lon="7.55072029"><ele>1950.171875</ele><time>2009-06-09T15:05:31Z</time></trkpt>
<trkpt lat="46.05596566" lon="7.55084108"><ele>1948.249023</ele><time>2009-06-09T15:05:34Z</time></trkpt>
<trkpt lat="46.05602366" lon="7.55068727"><ele>1947.287598</ele><time>2009-06-09T15:05:37Z</time></trkpt>
<trkpt lat="46.05576491" lon="7.54965831"><ele>1938.635986</ele><time>2009-06-09T15:05:49Z</time></trkpt>
<trkpt lat="46.05631007" lon="7.54984950"><ele>1930.4646</ele><time>2009-06-09T15:06:03Z</time></trkpt>
<trkpt lat="46.05645499" lon="7.54996525"><ele>1928.061279</ele><time>2009-06-09T15:06:06Z</time></trkpt>
<trkpt lat="46.05656052" lon="7.54981044"><ele>1927.100098</ele><time>2009-06-09T15:06:09Z</time></trkpt>
<trkpt lat="46.05660704" lon="7.54922169"><ele>1922.77417</ele><time>2009-06-09T15:06:15Z</time></trkpt>
<trkpt lat="46.05674844" lon="7.54897594"><ele>1919.409668</ele><time>2009-06-09T15:06:19Z</time></trkpt>
<trkpt lat="46.05706796" lon="7.54893000"><ele>1917.486816</ele><time>2009-06-09T15:06:23Z</time></trkpt>
<trkpt lat="46.05779685" lon="7.54899530"><ele>1913.641357</ele><time>2009-06-09T15:06:32Z</time></trkpt>
<trkpt lat="46.05791210" lon="7.54905850"><ele>1912.199463</ele><time>2009-06-09T15:06:34Z</time></trkpt>
<trkpt lat="46.05809265" lon="7.54919856"><ele>1912.199463</ele><time>2009-06-09T15:06:38Z</time></trkpt>
<trkpt lat="46.05850437" lon="7.54921021"><ele>1903.067139</ele><time>2009-06-09T15:06:52Z</time></trkpt>
<trkpt lat="46.05858031" lon="7.54920870"><ele>1902.105713</ele><time>2009-06-09T15:06:54Z</time></trkpt>
<trkpt lat="46.05876379" lon="7.54916813"><ele>1900.663818</ele><time>2009-06-09T15:06:58Z</time></trkpt>
<trkpt lat="46.05890058" lon="7.54917802"><ele>1898.740967</ele><time>2009-06-09T15:07:01Z</time></trkpt>
<trkpt lat="46.05907668" lon="7.54944800"><ele>1895.376465</ele><time>2009-06-09T15:07:05Z</time></trkpt>
<trkpt lat="46.05917375" lon="7.54980105"><ele>1891.53125</ele><time>2009-06-09T15:07:09Z</time></trkpt>
<trkpt lat="46.05940224" lon="7.55035509"><ele>1888.166748</ele><time>2009-06-09T15:07:15Z</time></trkpt>
<trkpt lat="46.05969535" lon="7.55048225"><ele>1886.244141</ele><time>2009-06-09T15:07:19Z</time></trkpt>
<trkpt lat="46.05991253" lon="7.55027714"><ele>1884.802246</ele><time>2009-06-09T15:07:22Z</time></trkpt>
<trkpt lat="46.06026046" lon="7.55007162"><ele>1883.359863</ele><time>2009-06-09T15:07:26Z</time></trkpt>
<trkpt lat="46.06043874" lon="7.55003700"><ele>1883.359863</ele><time>2009-06-09T15:07:28Z</time></trkpt>
<trkpt lat="46.06080344" lon="7.54987741"><ele>1882.87915</ele><time>2009-06-09T15:07:32Z</time></trkpt>
<trkpt lat="46.06122698" lon="7.54940693"><ele>1878.553467</ele><time>2009-06-09T15:07:37Z</time></trkpt>
<trkpt lat="46.06139830" lon="7.54906235"><ele>1876.630859</ele><time>2009-06-09T15:07:40Z</time></trkpt>
<trkpt lat="46.06165051" lon="7.54881919"><ele>1874.227539</ele><time>2009-06-09T15:07:43Z</time></trkpt>
<trkpt lat="46.06216894" lon="7.54845919"><ele>1866.056152</ele><time>2009-06-09T15:07:48Z</time></trkpt>
<trkpt lat="46.06274318" lon="7.54828862"><ele>1863.172363</ele><time>2009-06-09T15:07:53Z</time></trkpt>
<trkpt lat="46.06286539" lon="7.54824646"><ele>1862.69165</ele><time>2009-06-09T15:07:54Z</time></trkpt>
<trkpt lat="46.06337526" lon="7.54788386"><ele>1855.001221</ele><time>2009-06-09T15:07:59Z</time></trkpt>
<trkpt lat="46.06301651" lon="7.54778076"><ele>1847.79126</ele><time>2009-06-09T15:08:10Z</time></trkpt>
<trkpt lat="46.06225644" lon="7.54796097"><ele>1847.79126</ele><time>2009-06-09T15:08:19Z</time></trkpt>
<trkpt lat="46.06173475" lon="7.54774866"><ele>1845.387939</ele><time>2009-06-09T15:08:28Z</time></trkpt>
<trkpt lat="46.06184397" lon="7.54764045"><ele>1844.426514</ele><time>2009-06-09T15:08:30Z</time></trkpt>
<trkpt lat="46.06205536" lon="7.54776358"><ele>1842.984619</ele><time>2009-06-09T15:08:33Z</time></trkpt>
<trkpt lat="46.06232400" lon="7.54772041"><ele>1840.10083</ele><time>2009-06-09T15:08:36Z</time></trkpt>
<trkpt lat="46.06240639" lon="7.54765830"><ele>1838.658936</ele><time>2009-06-09T15:08:37Z</time></trkpt>
<trkpt lat="46.06314769" lon="7.54705288"><ele>1826.161621</ele><time>2009-06-09T15:08:45Z</time></trkpt>
<trkpt lat="46.06370936" lon="7.54658634"><ele>1818.95166</ele><time>2009-06-09T15:08:50Z</time></trkpt>
<trkpt lat="46.06396107" lon="7.54643823"><ele>1816.54834</ele><time>2009-06-09T15:08:53Z</time></trkpt>
<trkpt lat="46.06409082" lon="7.54639909"><ele>1814.14502</ele><time>2009-06-09T15:08:55Z</time></trkpt>
<trkpt lat="46.06443046" lon="7.54624302"><ele>1808.377197</ele><time>2009-06-09T15:09:03Z</time></trkpt>
<trkpt lat="46.06447178" lon="7.54622106"><ele>1807.416016</ele><time>2009-06-09T15:09:04Z</time></trkpt>
<trkpt lat="46.06461612" lon="7.54595619"><ele>1803.570557</ele><time>2009-06-09T15:09:08Z</time></trkpt>
<trkpt lat="46.06512867" lon="7.54411175"><ele>1784.344238</ele><time>2009-06-09T15:09:23Z</time></trkpt>
<trkpt lat="46.06552681" lon="7.54365192"><ele>1777.61499</ele><time>2009-06-09T15:09:28Z</time></trkpt>
<trkpt lat="46.06562982" lon="7.54359618"><ele>1776.653809</ele><time>2009-06-09T15:09:29Z</time></trkpt>
<trkpt lat="46.06628948" lon="7.54334128"><ele>1769.924316</ele><time>2009-06-09T15:09:35Z</time></trkpt>
<trkpt lat="46.06676783" lon="7.54290434"><ele>1766.079102</ele><time>2009-06-09T15:09:40Z</time></trkpt>
<trkpt lat="46.06718416" lon="7.54227620"><ele>1762.7146</ele><time>2009-06-09T15:09:45Z</time></trkpt>
<trkpt lat="46.06754509" lon="7.54207612"><ele>1761.753418</ele><time>2009-06-09T15:09:48Z</time></trkpt>
<trkpt lat="46.06767006" lon="7.54202482"><ele>1761.272705</ele><time>2009-06-09T15:09:49Z</time></trkpt>
<trkpt lat="46.06800752" lon="7.54175224"><ele>1759.830566</ele><time>2009-06-09T15:09:53Z</time></trkpt>
<trkpt lat="46.06802009" lon="7.54128562"><ele>1758.869385</ele><time>2009-06-09T15:09:56Z</time></trkpt>
<trkpt lat="46.06799779" lon="7.54098857"><ele>1757.42749</ele><time>2009-06-09T15:09:58Z</time></trkpt>
<trkpt lat="46.06808765" lon="7.54016974"><ele>1754.062744</ele><time>2009-06-09T15:10:04Z</time></trkpt>
<trkpt lat="46.06826635" lon="7.53968602"><ele>1751.178711</ele><time>2009-06-09T15:10:08Z</time></trkpt>
<trkpt lat="46.06846442" lon="7.53946843"><ele>1750.217529</ele><time>2009-06-09T15:10:12Z</time></trkpt>
<trkpt lat="46.06881863" lon="7.53922627"><ele>1748.294678</ele><time>2009-06-09T15:10:17Z</time></trkpt>
<trkpt lat="46.06907462" lon="7.53904983"><ele>1747.333496</ele><time>2009-06-09T15:10:20Z</time></trkpt>
<trkpt lat="46.06943588" lon="7.53918612"><ele>1744.449463</ele><time>2009-06-09T15:10:24Z</time></trkpt>
<trkpt lat="46.06961651" lon="7.53915804"><ele>1743.007568</ele><time>2009-06-09T15:10:26Z</time></trkpt>
<trkpt lat="46.06981918" lon="7.53894908"><ele>1742.046387</ele><time>2009-06-09T15:10:29Z</time></trkpt>
<trkpt lat="46.07008757" lon="7.53874146"><ele>1739.162109</ele><time>2009-06-09T15:10:33Z</time></trkpt>
<trkpt lat="46.07107211" lon="7.53879033"><ele>1737.239502</ele><time>2009-06-09T15:10:45Z</time></trkpt>
<trkpt lat="46.07138283" lon="7.53851448"><ele>1732.433105</ele><time>2009-06-09T15:10:49Z</time></trkpt>
<trkpt lat="46.07156681" lon="7.53824375"><ele>1729.068359</ele><time>2009-06-09T15:10:52Z</time></trkpt>
<trkpt lat="46.07175222" lon="7.53809212"><ele>1727.145996</ele><time>2009-06-09T15:10:54Z</time></trkpt>
<trkpt lat="46.07230945" lon="7.53745786"><ele>1723.300537</ele><time>2009-06-09T15:11:01Z</time></trkpt>
<trkpt lat="46.07257892" lon="7.53745199"><ele>1722.339111</ele><time>2009-06-09T15:11:04Z</time></trkpt>
<trkpt lat="46.07286039" lon="7.53745224"><ele>1721.858398</ele><time>2009-06-09T15:11:07Z</time></trkpt>
<trkpt lat="46.07308888" lon="7.53727312"><ele>1721.377686</ele><time>2009-06-09T15:11:10Z</time></trkpt>
<trkpt lat="46.07314571" lon="7.53702577"><ele>1721.377686</ele><time>2009-06-09T15:11:12Z</time></trkpt>
<trkpt lat="46.07326037" lon="7.53595842"><ele>1720.897217</ele><time>2009-06-09T15:11:20Z</time></trkpt>
<trkpt lat="46.07377108" lon="7.53460315"><ele>1718.974609</ele><time>2009-06-09T15:11:31Z</time></trkpt>
<trkpt lat="46.07396278" lon="7.53422596"><ele>1714.648682</ele><time>2009-06-09T15:11:35Z</time></trkpt>
<trkpt lat="46.07423100" lon="7.53401776"><ele>1710.322754</ele><time>2009-06-09T15:11:38Z</time></trkpt>
<trkpt lat="46.07447248" lon="7.53353857"><ele>1705.996582</ele><time>2009-06-09T15:11:42Z</time></trkpt>
<trkpt lat="46.07468370" lon="7.53301428"><ele>1702.151367</ele><time>2009-06-09T15:11:46Z</time></trkpt>
<trkpt lat="46.07475998" lon="7.53291814"><ele>1700.709473</ele><time>2009-06-09T15:11:47Z</time></trkpt>
<trkpt lat="46.07502812" lon="7.53225161"><ele>1698.306152</ele><time>2009-06-09T15:11:52Z</time></trkpt>
<trkpt lat="46.07509207" lon="7.53191834"><ele>1697.825684</ele><time>2009-06-09T15:11:54Z</time></trkpt>
<trkpt lat="46.07523406" lon="7.53145642"><ele>1696.864258</ele><time>2009-06-09T15:11:57Z</time></trkpt>
<trkpt lat="46.07549465" lon="7.53097923"><ele>1689.173584</ele><time>2009-06-09T15:12:03Z</time></trkpt>
<trkpt lat="46.07590805" lon="7.53055125"><ele>1684.8479</ele><time>2009-06-09T15:12:11Z</time></trkpt>
<trkpt lat="46.07619362" lon="7.53018103"><ele>1684.8479</ele><time>2009-06-09T15:12:18Z</time></trkpt>
<trkpt lat="46.07646209" lon="7.52994466"><ele>1686.289795</ele><time>2009-06-09T15:12:26Z</time></trkpt>
<trkpt lat="46.07674356" lon="7.52980007"><ele>1688.212402</ele><time>2009-06-09T15:12:35Z</time></trkpt>
<trkpt lat="46.07687373" lon="7.52966152"><ele>1688.693115</ele><time>2009-06-09T15:12:40Z</time></trkpt>
<trkpt lat="46.07690977" lon="7.52938952"><ele>1689.654297</ele><time>2009-06-09T15:12:46Z</time></trkpt>
<trkpt lat="46.07700926" lon="7.52916246"><ele>1689.654297</ele><time>2009-06-09T15:12:55Z</time></trkpt>
<trkpt lat="46.07710423" lon="7.52879265"><ele>1689.654297</ele><time>2009-06-09T15:13:08Z</time></trkpt>
<trkpt lat="46.07718176" lon="7.52859249"><ele>1693.499756</ele><time>2009-06-09T15:13:16Z</time></trkpt>
<trkpt lat="46.07731713" lon="7.52836567"><ele>1694.94165</ele><time>2009-06-09T15:13:25Z</time></trkpt>
<trkpt lat="46.07751511" lon="7.52809879"><ele>1696.383789</ele><time>2009-06-09T15:13:35Z</time></trkpt>
<trkpt lat="46.07767914" lon="7.52786016"><ele>1696.864258</ele><time>2009-06-09T15:13:43Z</time></trkpt>
<trkpt lat="46.07780529" lon="7.52765246"><ele>1697.825684</ele><time>2009-06-09T15:13:49Z</time></trkpt>
<trkpt lat="46.07813705" lon="7.52737502"><ele>1697.825684</ele><time>2009-06-09T15:13:57Z</time></trkpt>
<trkpt lat="46.07832639" lon="7.52717628"><ele>1698.306152</ele><time>2009-06-09T15:14:02Z</time></trkpt>
<trkpt lat="46.07848448" lon="7.52675761"><ele>1699.267578</ele><time>2009-06-09T15:14:09Z</time></trkpt>
<trkpt lat="46.07858959" lon="7.52635259"><ele>1699.748291</ele><time>2009-06-09T15:14:15Z</time></trkpt>
<trkpt lat="46.07878120" lon="7.52616576"><ele>1699.267578</ele><time>2009-06-09T15:14:20Z</time></trkpt>
<trkpt lat="46.07909585" lon="7.52604397"><ele>1698.306152</ele><time>2009-06-09T15:14:25Z</time></trkpt>
<trkpt lat="46.07946390" lon="7.52564340"><ele>1696.864258</ele><time>2009-06-09T15:14:31Z</time></trkpt>
<trkpt lat="46.07977320" lon="7.52531114"><ele>1696.383789</ele><time>2009-06-09T15:14:36Z</time></trkpt>
<trkpt lat="46.07994117" lon="7.52498726"><ele>1695.903076</ele><time>2009-06-09T15:14:40Z</time></trkpt>
<trkpt lat="46.08017025" lon="7.52438821"><ele>1693.980469</ele><time>2009-06-09T15:14:47Z</time></trkpt>
<trkpt lat="46.08047677" lon="7.52392234"><ele>1693.499756</ele><time>2009-06-09T15:14:53Z</time></trkpt>
<trkpt lat="46.08053469" lon="7.52385889"><ele>1693.499756</ele><time>2009-06-09T15:14:54Z</time></trkpt>
<trkpt lat="46.08077810" lon="7.52337584"><ele>1693.980469</ele><time>2009-06-09T15:15:00Z</time></trkpt>
<trkpt lat="46.08115076" lon="7.52290671"><ele>1694.94165</ele><time>2009-06-09T15:15:08Z</time></trkpt>
<trkpt lat="46.08163683" lon="7.52258065"><ele>1696.864258</ele><time>2009-06-09T15:15:18Z</time></trkpt>
<trkpt lat="46.08202550" lon="7.52223741"><ele>1698.786865</ele><time>2009-06-09T15:15:27Z</time></trkpt>
<trkpt lat="46.08237284" lon="7.52175596"><ele>1700.709473</ele><time>2009-06-09T15:15:37Z</time></trkpt>
<trkpt lat="46.08240838" lon="7.52170885"><ele>1700.709473</ele><time>2009-06-09T15:15:38Z</time></trkpt>
<trkpt lat="46.08261290" lon="7.52160768"><ele>1701.670898</ele><time>2009-06-09T15:15:43Z</time></trkpt>
<trkpt lat="46.08267585" lon="7.52161967"><ele>1702.151367</ele><time>2009-06-09T15:15:45Z</time></trkpt>
<trkpt lat="46.08287886" lon="7.52170139"><ele>1703.593506</ele><time>2009-06-09T15:15:53Z</time></trkpt>
<trkpt lat="46.08320081" lon="7.52176216"><ele>1706.958008</ele><time>2009-06-09T15:16:05Z</time></trkpt>
<trkpt lat="46.08348462" lon="7.52167725"><ele>1709.361572</ele><time>2009-06-09T15:16:16Z</time></trkpt>
<trkpt lat="46.08376516" lon="7.52156971"><ele>1712.726074</ele><time>2009-06-09T15:16:27Z</time></trkpt>
<trkpt lat="46.08407730" lon="7.52143962"><ele>1716.571289</ele><time>2009-06-09T15:16:39Z</time></trkpt>
<trkpt lat="46.08430227" lon="7.52121650"><ele>1718.493896</ele><time>2009-06-09T15:16:49Z</time></trkpt>
<trkpt lat="46.08461207" lon="7.52082774"><ele>1721.377686</ele><time>2009-06-09T15:17:04Z</time></trkpt>
<trkpt lat="46.08493821" lon="7.52050529"><ele>1721.858398</ele><time>2009-06-09T15:17:18Z</time></trkpt>
<trkpt lat="46.08521800" lon="7.52027110"><ele>1723.300537</ele><time>2009-06-09T15:17:29Z</time></trkpt>
<trkpt lat="46.08549225" lon="7.52010506"><ele>1725.223145</ele><time>2009-06-09T15:17:38Z</time></trkpt>
<trkpt lat="46.08595376" lon="7.52018292"><ele>1730.029785</ele><time>2009-06-09T15:17:48Z</time></trkpt>
<trkpt lat="46.08608091" lon="7.52019432"><ele>1731.47168</ele><time>2009-06-09T15:17:51Z</time></trkpt>
<trkpt lat="46.08628007" lon="7.52010724"><ele>1732.433105</ele><time>2009-06-09T15:17:56Z</time></trkpt>
<trkpt lat="46.08668558" lon="7.51968454"><ele>1733.875</ele><time>2009-06-09T15:18:08Z</time></trkpt>
<trkpt lat="46.08698230" lon="7.51927030"><ele>1733.875</ele><time>2009-06-09T15:18:18Z</time></trkpt>
<trkpt lat="46.08715857" lon="7.51884802"><ele>1734.355713</ele><time>2009-06-09T15:18:27Z</time></trkpt>
<trkpt lat="46.08730031" lon="7.51851099"><ele>1734.355713</ele><time>2009-06-09T15:18:35Z</time></trkpt>
<trkpt lat="46.08734851" lon="7.51839112"><ele>1733.875</ele><time>2009-06-09T15:18:39Z</time></trkpt>
<trkpt lat="46.08726670" lon="7.51810882"><ele>1733.394287</ele><time>2009-06-09T15:18:59Z</time></trkpt>
<trkpt lat="46.08722848" lon="7.51805283"><ele>1732.913574</ele><time>2009-06-09T15:19:01Z</time></trkpt>
<trkpt lat="46.08713913" lon="7.51801914"><ele>1732.433105</ele><time>2009-06-09T15:19:06Z</time></trkpt>
<trkpt lat="46.08735991" lon="7.51738966"><ele>1730.029785</ele><time>2009-06-09T15:19:19Z</time></trkpt>
<trkpt lat="46.08768135" lon="7.51728958"><ele>1726.18457</ele><time>2009-06-09T15:19:30Z</time></trkpt>
<trkpt lat="46.08793977" lon="7.51727985"><ele>1724.261963</ele><time>2009-06-09T15:19:35Z</time></trkpt>
<trkpt lat="46.08803038" lon="7.51728228"><ele>1722.819824</ele><time>2009-06-09T15:19:37Z</time></trkpt>
<trkpt lat="46.08829633" lon="7.51708388"><ele>1719.935791</ele><time>2009-06-09T15:19:42Z</time></trkpt>
<trkpt lat="46.08862490" lon="7.51697324"><ele>1715.129395</ele><time>2009-06-09T15:19:47Z</time></trkpt>
<trkpt lat="46.08877008" lon="7.51695815"><ele>1712.245361</ele><time>2009-06-09T15:19:49Z</time></trkpt>
<trkpt lat="46.08922656" lon="7.51683720"><ele>1705.516113</ele><time>2009-06-09T15:19:55Z</time></trkpt>
<trkpt lat="46.08951556" lon="7.51678172"><ele>1704.074219</ele><time>2009-06-09T15:19:58Z</time></trkpt>
<trkpt lat="46.08991815" lon="7.51666714"><ele>1699.748291</ele><time>2009-06-09T15:20:02Z</time></trkpt>
<trkpt lat="46.09044587" lon="7.51630395"><ele>1693.019043</ele><time>2009-06-09T15:20:08Z</time></trkpt>
<trkpt lat="46.09076313" lon="7.51599348"><ele>1689.654297</ele><time>2009-06-09T15:20:12Z</time></trkpt>
<trkpt lat="46.09105675" lon="7.51588468"><ele>1689.173584</ele><time>2009-06-09T15:20:16Z</time></trkpt>
<trkpt lat="46.09111743" lon="7.51587706"><ele>1688.693115</ele><time>2009-06-09T15:20:17Z</time></trkpt>
<trkpt lat="46.09128155" lon="7.51584219"><ele>1687.731689</ele><time>2009-06-09T15:20:20Z</time></trkpt>
<trkpt lat="46.09151859" lon="7.51574764"><ele>1685.328369</ele><time>2009-06-09T15:20:26Z</time></trkpt>
<trkpt lat="46.09167357" lon="7.51571462"><ele>1682.44458</ele><time>2009-06-09T15:20:30Z</time></trkpt>
<trkpt lat="46.09185822" lon="7.51572300"><ele>1678.599365</ele><time>2009-06-09T15:20:34Z</time></trkpt>
<trkpt lat="46.09193735" lon="7.51569467"><ele>1678.118652</ele><time>2009-06-09T15:20:36Z</time></trkpt>
<trkpt lat="46.09210172" lon="7.51562568"><ele>1676.676758</ele><time>2009-06-09T15:20:42Z</time></trkpt>
<trkpt lat="46.09230179" lon="7.51561177"><ele>1674.753906</ele><time>2009-06-09T15:20:49Z</time></trkpt>
<trkpt lat="46.09259231" lon="7.51581545"><ele>1674.273193</ele><time>2009-06-09T15:21:05Z</time></trkpt>
<trkpt lat="46.09281627" lon="7.51593699"><ele>1673.79248</ele><time>2009-06-09T15:21:12Z</time></trkpt>
<trkpt lat="46.09303479" lon="7.51567966"><ele>1670.908691</ele><time>2009-06-09T15:21:19Z</time></trkpt>
<trkpt lat="46.09324384" lon="7.51556818"><ele>1670.427979</ele><time>2009-06-09T15:21:26Z</time></trkpt>
<trkpt lat="46.09361901" lon="7.51558461"><ele>1669.466797</ele><time>2009-06-09T15:21:37Z</time></trkpt>
<trkpt lat="46.09387499" lon="7.51552250"><ele>1672.350586</ele><time>2009-06-09T15:22:05Z</time></trkpt>
<trkpt lat="46.09428520" lon="7.51560825"><ele>1671.38916</ele><time>2009-06-09T15:22:13Z</time></trkpt>
<trkpt lat="46.09509758" lon="7.51593942"><ele>1670.427979</ele><time>2009-06-09T15:22:21Z</time></trkpt>
<trkpt lat="46.09570158" lon="7.51614863"><ele>1668.986084</ele><time>2009-06-09T15:22:26Z</time></trkpt>
<trkpt lat="46.09604373" lon="7.51598259"><ele>1666.102051</ele><time>2009-06-09T15:22:29Z</time></trkpt>
<trkpt lat="46.09612998" lon="7.51588728"><ele>1665.621582</ele><time>2009-06-09T15:22:30Z</time></trkpt>
<trkpt lat="46.09645788" lon="7.51578351"><ele>1665.621582</ele><time>2009-06-09T15:22:34Z</time></trkpt>
<trkpt lat="46.09671948" lon="7.51576390"><ele>1664.179443</ele><time>2009-06-09T15:22:39Z</time></trkpt>
<trkpt lat="46.09716933" lon="7.51570590"><ele>1664.660156</ele><time>2009-06-09T15:22:49Z</time></trkpt>
<trkpt lat="46.09760980" lon="7.51570263"><ele>1666.582764</ele><time>2009-06-09T15:23:00Z</time></trkpt>
<trkpt lat="46.09786696" lon="7.51563314"><ele>1666.582764</ele><time>2009-06-09T15:23:08Z</time></trkpt>
<trkpt lat="46.09811263" lon="7.51551898"><ele>1666.582764</ele><time>2009-06-09T15:23:17Z</time></trkpt>
<trkpt lat="46.09835017" lon="7.51527498"><ele>1669.947266</ele><time>2009-06-09T15:23:27Z</time></trkpt>
<trkpt lat="46.09853466" lon="7.51501179"><ele>1672.350586</ele><time>2009-06-09T15:23:37Z</time></trkpt>
<trkpt lat="46.09873088" lon="7.51490207"><ele>1674.753906</ele><time>2009-06-09T15:23:45Z</time></trkpt>
<trkpt lat="46.09897697" lon="7.51473997"><ele>1676.676758</ele><time>2009-06-09T15:23:55Z</time></trkpt>
<trkpt lat="46.09909264" lon="7.51475103"><ele>1677.157471</ele><time>2009-06-09T15:24:02Z</time></trkpt>
<trkpt lat="46.09935290" lon="7.51457962"><ele>1675.234375</ele><time>2009-06-09T15:24:17Z</time></trkpt>
<trkpt lat="46.09966136" lon="7.51434870"><ele>1677.157471</ele><time>2009-06-09T15:24:29Z</time></trkpt>
<trkpt lat="46.09999621" lon="7.51417352"><ele>1681.963867</ele><time>2009-06-09T15:24:41Z</time></trkpt>
<trkpt lat="46.10030894" lon="7.51398442"><ele>1685.809082</ele><time>2009-06-09T15:24:53Z</time></trkpt>
<trkpt lat="46.10069501" lon="7.51392039"><ele>1689.654297</ele><time>2009-06-09T15:25:07Z</time></trkpt>
<trkpt lat="46.10102241" lon="7.51394193"><ele>1692.057861</ele><time>2009-06-09T15:25:19Z</time></trkpt>
<trkpt lat="46.10135056" lon="7.51397554"><ele>1694.460938</ele><time>2009-06-09T15:25:31Z</time></trkpt>
<trkpt lat="46.10145852" lon="7.51399431"><ele>1695.422363</ele><time>2009-06-09T15:25:38Z</time></trkpt>
<trkpt lat="46.10145609" lon="7.51399431"><ele>1694.94165</ele><time>2009-06-09T15:25:40Z</time></trkpt>
</trkseg></trk></gpx>